<?xml version="1.0" encoding="UTF-8" standalone="no" ?>
<gpx xmlns="http://www.topografix.com/GPX/1/1" xmlns:xsi="http://www.w3.org/2001/XMLSchema-instance" xsi:schemaLocation="http://www.topografix.com/GPX/1/1 http://www.topografix.com/GPX/1/1/gpx.xsd" version="1.1" creator="VisuGPX - https://www.visugpx.com">
  <metadata>
    <name>2021-05-27 17:25:31</name>
  </metadata>
  <trk>
    <name><![CDATA[2021-05-27 17:25:31]]></name>
    <trkseg>
      <trkpt lat="43.526" lon="1.28287">
        <ele>174.14</ele>
        <time>2021-05-27T12:30:36Z</time>
      </trkpt>
      <trkpt lat="43.52598" lon="1.28295">
        <ele>174.14</ele>
        <time>2021-05-27T12:30:50Z</time>
      </trkpt>
      <trkpt lat="43.52596" lon="1.28294">
        <ele>174.14</ele>
        <time>2021-05-27T12:31:00Z</time>
      </trkpt>
      <trkpt lat="43.52596" lon="1.28293">
        <ele>173.66</ele>
        <time>2021-05-27T12:31:23Z</time>
      </trkpt>
      <trkpt lat="43.52595" lon="1.28293">
        <ele>173.66</ele>
        <time>2021-05-27T12:31:49Z</time>
      </trkpt>
      <trkpt lat="43.52596" lon="1.28295">
        <ele>173.66</ele>
        <time>2021-05-27T12:32:18Z</time>
      </trkpt>
      <trkpt lat="43.52594" lon="1.28301">
        <ele>174.14</ele>
        <time>2021-05-27T12:32:22Z</time>
      </trkpt>
      <trkpt lat="43.52593" lon="1.2831">
        <ele>174.14</ele>
        <time>2021-05-27T12:32:28Z</time>
      </trkpt>
      <trkpt lat="43.5259" lon="1.28321">
        <ele>174.14</ele>
        <time>2021-05-27T12:32:43Z</time>
      </trkpt>
      <trkpt lat="43.5259" lon="1.28321">
        <ele>174.14</ele>
        <time>2021-05-27T12:33:04Z</time>
      </trkpt>
      <trkpt lat="43.52591" lon="1.28317">
        <ele>174.14</ele>
        <time>2021-05-27T12:33:26Z</time>
      </trkpt>
      <trkpt lat="43.52595" lon="1.283">
        <ele>174.14</ele>
        <time>2021-05-27T12:33:42Z</time>
      </trkpt>
      <trkpt lat="43.52598" lon="1.28294">
        <ele>174.14</ele>
        <time>2021-05-27T12:33:47Z</time>
      </trkpt>
      <trkpt lat="43.52593" lon="1.2829">
        <ele>174.14</ele>
        <time>2021-05-27T12:34:00Z</time>
      </trkpt>
      <trkpt lat="43.52591" lon="1.2829">
        <ele>174.14</ele>
        <time>2021-05-27T12:34:05Z</time>
      </trkpt>
      <trkpt lat="43.5259" lon="1.2828">
        <ele>172.21</ele>
        <time>2021-05-27T12:34:11Z</time>
      </trkpt>
      <trkpt lat="43.52593" lon="1.28251">
        <ele>172.21</ele>
        <time>2021-05-27T12:34:27Z</time>
      </trkpt>
      <trkpt lat="43.5258" lon="1.28236">
        <ele>172.21</ele>
        <time>2021-05-27T12:34:42Z</time>
      </trkpt>
      <trkpt lat="43.52566" lon="1.28234">
        <ele>172.21</ele>
        <time>2021-05-27T12:34:58Z</time>
      </trkpt>
      <trkpt lat="43.52552" lon="1.28234">
        <ele>171.73</ele>
        <time>2021-05-27T12:35:11Z</time>
      </trkpt>
      <trkpt lat="43.52527" lon="1.28232">
        <ele>171.73</ele>
        <time>2021-05-27T12:35:29Z</time>
      </trkpt>
      <trkpt lat="43.52509" lon="1.2823">
        <ele>171.73</ele>
        <time>2021-05-27T12:35:44Z</time>
      </trkpt>
      <trkpt lat="43.52482" lon="1.28228">
        <ele>171.73</ele>
        <time>2021-05-27T12:36:04Z</time>
      </trkpt>
      <trkpt lat="43.52465" lon="1.28226">
        <ele>171.73</ele>
        <time>2021-05-27T12:36:17Z</time>
      </trkpt>
      <trkpt lat="43.52441" lon="1.28223">
        <ele>171.73</ele>
        <time>2021-05-27T12:36:35Z</time>
      </trkpt>
      <trkpt lat="43.52428" lon="1.28221">
        <ele>173.66</ele>
        <time>2021-05-27T12:36:47Z</time>
      </trkpt>
      <trkpt lat="43.52401" lon="1.28221">
        <ele>173.66</ele>
        <time>2021-05-27T12:37:08Z</time>
      </trkpt>
      <trkpt lat="43.52389" lon="1.28217">
        <ele>173.66</ele>
        <time>2021-05-27T12:37:25Z</time>
      </trkpt>
      <trkpt lat="43.52389" lon="1.28217">
        <ele>174.14</ele>
        <time>2021-05-27T12:37:52Z</time>
      </trkpt>
      <trkpt lat="43.52386" lon="1.28219">
        <ele>174.14</ele>
        <time>2021-05-27T12:38:05Z</time>
      </trkpt>
      <trkpt lat="43.52383" lon="1.28218">
        <ele>174.14</ele>
        <time>2021-05-27T12:38:21Z</time>
      </trkpt>
      <trkpt lat="43.52382" lon="1.2822">
        <ele>175.1</ele>
        <time>2021-05-27T12:38:37Z</time>
      </trkpt>
      <trkpt lat="43.52382" lon="1.28219">
        <ele>166.93</ele>
        <time>2021-05-27T12:38:40Z</time>
      </trkpt>
      <trkpt lat="43.52383" lon="1.28218">
        <ele>175.1</ele>
        <time>2021-05-27T12:38:41Z</time>
      </trkpt>
      <trkpt lat="43.52381" lon="1.28218">
        <ele>173.66</ele>
        <time>2021-05-27T12:38:44Z</time>
      </trkpt>
      <trkpt lat="43.52379" lon="1.28219">
        <ele>173.66</ele>
        <time>2021-05-27T12:38:51Z</time>
      </trkpt>
      <trkpt lat="43.52357" lon="1.28224">
        <ele>173.66</ele>
        <time>2021-05-27T12:39:09Z</time>
      </trkpt>
      <trkpt lat="43.52355" lon="1.28226">
        <ele>173.17</ele>
        <time>2021-05-27T12:39:12Z</time>
      </trkpt>
      <trkpt lat="43.52355" lon="1.28236">
        <ele>174.62</ele>
        <time>2021-05-27T12:39:19Z</time>
      </trkpt>
      <trkpt lat="43.52357" lon="1.28243">
        <ele>176.06</ele>
        <time>2021-05-27T12:39:32Z</time>
      </trkpt>
      <trkpt lat="43.52357" lon="1.28244">
        <ele>175.58</ele>
        <time>2021-05-27T12:39:50Z</time>
      </trkpt>
      <trkpt lat="43.52357" lon="1.28246">
        <ele>175.58</ele>
        <time>2021-05-27T12:40:05Z</time>
      </trkpt>
      <trkpt lat="43.52355" lon="1.28247">
        <ele>175.58</ele>
        <time>2021-05-27T12:40:30Z</time>
      </trkpt>
      <trkpt lat="43.52358" lon="1.28248">
        <ele>176.06</ele>
        <time>2021-05-27T12:40:41Z</time>
      </trkpt>
      <trkpt lat="43.52359" lon="1.28248">
        <ele>176.06</ele>
        <time>2021-05-27T12:40:50Z</time>
      </trkpt>
      <trkpt lat="43.52341" lon="1.28249">
        <ele>175.1</ele>
        <time>2021-05-27T12:40:58Z</time>
      </trkpt>
      <trkpt lat="43.52355" lon="1.28246">
        <ele>175.1</ele>
        <time>2021-05-27T12:41:11Z</time>
      </trkpt>
      <trkpt lat="43.52357" lon="1.28244">
        <ele>175.1</ele>
        <time>2021-05-27T12:41:21Z</time>
      </trkpt>
      <trkpt lat="43.52357" lon="1.28241">
        <ele>168.85</ele>
        <time>2021-05-27T12:41:25Z</time>
      </trkpt>
      <trkpt lat="43.52357" lon="1.28242">
        <ele>175.58</ele>
        <time>2021-05-27T12:41:27Z</time>
      </trkpt>
      <trkpt lat="43.52355" lon="1.28235">
        <ele>174.62</ele>
        <time>2021-05-27T12:41:41Z</time>
      </trkpt>
      <trkpt lat="43.52355" lon="1.2823">
        <ele>174.14</ele>
        <time>2021-05-27T12:41:59Z</time>
      </trkpt>
      <trkpt lat="43.52355" lon="1.28229">
        <ele>174.14</ele>
        <time>2021-05-27T12:42:19Z</time>
      </trkpt>
      <trkpt lat="43.52355" lon="1.28228">
        <ele>174.14</ele>
        <time>2021-05-27T12:42:20Z</time>
      </trkpt>
      <trkpt lat="43.52351" lon="1.28225">
        <ele>173.66</ele>
        <time>2021-05-27T12:42:25Z</time>
      </trkpt>
      <trkpt lat="43.52328" lon="1.28228">
        <ele>173.66</ele>
        <time>2021-05-27T12:42:43Z</time>
      </trkpt>
      <trkpt lat="43.52316" lon="1.2823">
        <ele>173.17</ele>
        <time>2021-05-27T12:42:59Z</time>
      </trkpt>
      <trkpt lat="43.52314" lon="1.28228">
        <ele>173.17</ele>
        <time>2021-05-27T12:43:02Z</time>
      </trkpt>
      <trkpt lat="43.52298" lon="1.28238">
        <ele>173.17</ele>
        <time>2021-05-27T12:43:18Z</time>
      </trkpt>
      <trkpt lat="43.52297" lon="1.2824">
        <ele>173.17</ele>
        <time>2021-05-27T12:43:20Z</time>
      </trkpt>
      <trkpt lat="43.52289" lon="1.28259">
        <ele>173.17</ele>
        <time>2021-05-27T12:43:33Z</time>
      </trkpt>
      <trkpt lat="43.52283" lon="1.28278">
        <ele>173.17</ele>
        <time>2021-05-27T12:43:45Z</time>
      </trkpt>
      <trkpt lat="43.52281" lon="1.28283">
        <ele>173.17</ele>
        <time>2021-05-27T12:43:48Z</time>
      </trkpt>
      <trkpt lat="43.52278" lon="1.2829">
        <ele>173.17</ele>
        <time>2021-05-27T12:43:53Z</time>
      </trkpt>
      <trkpt lat="43.52271" lon="1.28316">
        <ele>172.69</ele>
        <time>2021-05-27T12:44:09Z</time>
      </trkpt>
      <trkpt lat="43.52265" lon="1.28339">
        <ele>172.69</ele>
        <time>2021-05-27T12:44:23Z</time>
      </trkpt>
      <trkpt lat="43.52262" lon="1.28344">
        <ele>172.69</ele>
        <time>2021-05-27T12:44:27Z</time>
      </trkpt>
      <trkpt lat="43.52253" lon="1.28377">
        <ele>172.69</ele>
        <time>2021-05-27T12:44:46Z</time>
      </trkpt>
      <trkpt lat="43.52247" lon="1.28397">
        <ele>172.69</ele>
        <time>2021-05-27T12:44:57Z</time>
      </trkpt>
      <trkpt lat="43.52243" lon="1.28408">
        <ele>172.69</ele>
        <time>2021-05-27T12:45:04Z</time>
      </trkpt>
      <trkpt lat="43.52239" lon="1.28416">
        <ele>172.69</ele>
        <time>2021-05-27T12:45:10Z</time>
      </trkpt>
      <trkpt lat="43.52236" lon="1.28417">
        <ele>172.69</ele>
        <time>2021-05-27T12:45:12Z</time>
      </trkpt>
      <trkpt lat="43.52215" lon="1.28403">
        <ele>172.69</ele>
        <time>2021-05-27T12:45:31Z</time>
      </trkpt>
      <trkpt lat="43.52199" lon="1.28408">
        <ele>172.69</ele>
        <time>2021-05-27T12:45:44Z</time>
      </trkpt>
      <trkpt lat="43.52196" lon="1.28414">
        <ele>172.69</ele>
        <time>2021-05-27T12:45:48Z</time>
      </trkpt>
      <trkpt lat="43.52186" lon="1.28448">
        <ele>172.69</ele>
        <time>2021-05-27T12:46:08Z</time>
      </trkpt>
      <trkpt lat="43.52186" lon="1.28454">
        <ele>172.69</ele>
        <time>2021-05-27T12:46:23Z</time>
      </trkpt>
      <trkpt lat="43.5218" lon="1.28467">
        <ele>172.69</ele>
        <time>2021-05-27T12:46:38Z</time>
      </trkpt>
      <trkpt lat="43.52171" lon="1.28493">
        <ele>172.69</ele>
        <time>2021-05-27T12:46:55Z</time>
      </trkpt>
      <trkpt lat="43.52162" lon="1.28521">
        <ele>172.69</ele>
        <time>2021-05-27T12:47:13Z</time>
      </trkpt>
      <trkpt lat="43.52154" lon="1.28552">
        <ele>172.69</ele>
        <time>2021-05-27T12:47:31Z</time>
      </trkpt>
      <trkpt lat="43.52155" lon="1.28562">
        <ele>172.69</ele>
        <time>2021-05-27T12:47:37Z</time>
      </trkpt>
      <trkpt lat="43.52169" lon="1.28582">
        <ele>172.69</ele>
        <time>2021-05-27T12:47:53Z</time>
      </trkpt>
      <trkpt lat="43.52192" lon="1.286">
        <ele>172.69</ele>
        <time>2021-05-27T12:48:11Z</time>
      </trkpt>
      <trkpt lat="43.52197" lon="1.28604">
        <ele>172.69</ele>
        <time>2021-05-27T12:48:16Z</time>
      </trkpt>
      <trkpt lat="43.52219" lon="1.28621">
        <ele>172.69</ele>
        <time>2021-05-27T12:48:37Z</time>
      </trkpt>
      <trkpt lat="43.52222" lon="1.28622">
        <ele>172.69</ele>
        <time>2021-05-27T12:48:49Z</time>
      </trkpt>
      <trkpt lat="43.52242" lon="1.28629">
        <ele>172.69</ele>
        <time>2021-05-27T12:49:05Z</time>
      </trkpt>
      <trkpt lat="43.52266" lon="1.28635">
        <ele>172.69</ele>
        <time>2021-05-27T12:49:23Z</time>
      </trkpt>
      <trkpt lat="43.52278" lon="1.28645">
        <ele>172.21</ele>
        <time>2021-05-27T12:49:37Z</time>
      </trkpt>
      <trkpt lat="43.5229" lon="1.28653">
        <ele>172.21</ele>
        <time>2021-05-27T12:49:49Z</time>
      </trkpt>
      <trkpt lat="43.52299" lon="1.28657">
        <ele>172.21</ele>
        <time>2021-05-27T12:50:04Z</time>
      </trkpt>
      <trkpt lat="43.52298" lon="1.28657">
        <ele>171.73</ele>
        <time>2021-05-27T12:50:30Z</time>
      </trkpt>
      <trkpt lat="43.52306" lon="1.28663">
        <ele>171.73</ele>
        <time>2021-05-27T12:50:48Z</time>
      </trkpt>
      <trkpt lat="43.52327" lon="1.28678">
        <ele>171.73</ele>
        <time>2021-05-27T12:51:07Z</time>
      </trkpt>
      <trkpt lat="43.52349" lon="1.28693">
        <ele>171.73</ele>
        <time>2021-05-27T12:51:25Z</time>
      </trkpt>
      <trkpt lat="43.52367" lon="1.28703">
        <ele>171.73</ele>
        <time>2021-05-27T12:51:41Z</time>
      </trkpt>
      <trkpt lat="43.52375" lon="1.28711">
        <ele>171.73</ele>
        <time>2021-05-27T12:51:54Z</time>
      </trkpt>
      <trkpt lat="43.52394" lon="1.28722">
        <ele>171.73</ele>
        <time>2021-05-27T12:52:11Z</time>
      </trkpt>
      <trkpt lat="43.52409" lon="1.28732">
        <ele>171.73</ele>
        <time>2021-05-27T12:52:25Z</time>
      </trkpt>
      <trkpt lat="43.52423" lon="1.28741">
        <ele>171.73</ele>
        <time>2021-05-27T12:52:37Z</time>
      </trkpt>
      <trkpt lat="43.52445" lon="1.28751">
        <ele>171.73</ele>
        <time>2021-05-27T12:52:53Z</time>
      </trkpt>
      <trkpt lat="43.52464" lon="1.28757">
        <ele>171.73</ele>
        <time>2021-05-27T12:53:07Z</time>
      </trkpt>
      <trkpt lat="43.52483" lon="1.28765">
        <ele>171.73</ele>
        <time>2021-05-27T12:53:23Z</time>
      </trkpt>
      <trkpt lat="43.52507" lon="1.28775">
        <ele>171.73</ele>
        <time>2021-05-27T12:53:40Z</time>
      </trkpt>
      <trkpt lat="43.52522" lon="1.28781">
        <ele>173.17</ele>
        <time>2021-05-27T12:53:51Z</time>
      </trkpt>
      <trkpt lat="43.52546" lon="1.28791">
        <ele>173.17</ele>
        <time>2021-05-27T12:54:09Z</time>
      </trkpt>
      <trkpt lat="43.52571" lon="1.28801">
        <ele>173.17</ele>
        <time>2021-05-27T12:54:28Z</time>
      </trkpt>
      <trkpt lat="43.52578" lon="1.28804">
        <ele>173.17</ele>
        <time>2021-05-27T12:54:36Z</time>
      </trkpt>
      <trkpt lat="43.52596" lon="1.28812">
        <ele>173.17</ele>
        <time>2021-05-27T12:54:51Z</time>
      </trkpt>
      <trkpt lat="43.5262" lon="1.28822">
        <ele>173.17</ele>
        <time>2021-05-27T12:55:09Z</time>
      </trkpt>
      <trkpt lat="43.52632" lon="1.28832">
        <ele>173.17</ele>
        <time>2021-05-27T12:55:22Z</time>
      </trkpt>
      <trkpt lat="43.52633" lon="1.2884">
        <ele>173.17</ele>
        <time>2021-05-27T12:55:28Z</time>
      </trkpt>
      <trkpt lat="43.52632" lon="1.28847">
        <ele>173.17</ele>
        <time>2021-05-27T12:55:32Z</time>
      </trkpt>
      <trkpt lat="43.52626" lon="1.28872">
        <ele>173.17</ele>
        <time>2021-05-27T12:55:48Z</time>
      </trkpt>
      <trkpt lat="43.52617" lon="1.28898">
        <ele>173.17</ele>
        <time>2021-05-27T12:56:03Z</time>
      </trkpt>
      <trkpt lat="43.52611" lon="1.28923">
        <ele>172.69</ele>
        <time>2021-05-27T12:56:19Z</time>
      </trkpt>
      <trkpt lat="43.52607" lon="1.28948">
        <ele>172.69</ele>
        <time>2021-05-27T12:56:33Z</time>
      </trkpt>
      <trkpt lat="43.52611" lon="1.28957">
        <ele>172.69</ele>
        <time>2021-05-27T12:56:50Z</time>
      </trkpt>
      <trkpt lat="43.5261" lon="1.28954">
        <ele>172.69</ele>
        <time>2021-05-27T12:56:59Z</time>
      </trkpt>
      <trkpt lat="43.52605" lon="1.28952">
        <ele>172.69</ele>
        <time>2021-05-27T12:57:03Z</time>
      </trkpt>
      <trkpt lat="43.52584" lon="1.2895">
        <ele>172.69</ele>
        <time>2021-05-27T12:57:18Z</time>
      </trkpt>
      <trkpt lat="43.52569" lon="1.2895">
        <ele>172.69</ele>
        <time>2021-05-27T12:57:30Z</time>
      </trkpt>
      <trkpt lat="43.52547" lon="1.28941">
        <ele>172.69</ele>
        <time>2021-05-27T12:57:48Z</time>
      </trkpt>
      <trkpt lat="43.52544" lon="1.2894">
        <ele>172.69</ele>
        <time>2021-05-27T12:57:51Z</time>
      </trkpt>
      <trkpt lat="43.52519" lon="1.28932">
        <ele>172.69</ele>
        <time>2021-05-27T12:58:10Z</time>
      </trkpt>
      <trkpt lat="43.52515" lon="1.2893">
        <ele>172.69</ele>
        <time>2021-05-27T12:58:14Z</time>
      </trkpt>
      <trkpt lat="43.52497" lon="1.28919">
        <ele>172.69</ele>
        <time>2021-05-27T12:58:29Z</time>
      </trkpt>
      <trkpt lat="43.52483" lon="1.28918">
        <ele>172.69</ele>
        <time>2021-05-27T12:58:42Z</time>
      </trkpt>
      <trkpt lat="43.52478" lon="1.28917">
        <ele>172.69</ele>
        <time>2021-05-27T12:58:47Z</time>
      </trkpt>
      <trkpt lat="43.52469" lon="1.28917">
        <ele>172.69</ele>
        <time>2021-05-27T12:58:55Z</time>
      </trkpt>
      <trkpt lat="43.52452" lon="1.28928">
        <ele>172.69</ele>
        <time>2021-05-27T12:59:09Z</time>
      </trkpt>
      <trkpt lat="43.52446" lon="1.28926">
        <ele>172.69</ele>
        <time>2021-05-27T12:59:24Z</time>
      </trkpt>
      <trkpt lat="43.52433" lon="1.28923">
        <ele>173.17</ele>
        <time>2021-05-27T12:59:38Z</time>
      </trkpt>
      <trkpt lat="43.52418" lon="1.28912">
        <ele>173.17</ele>
        <time>2021-05-27T12:59:52Z</time>
      </trkpt>
      <trkpt lat="43.52409" lon="1.28904">
        <ele>173.17</ele>
        <time>2021-05-27T13:00:03Z</time>
      </trkpt>
      <trkpt lat="43.52404" lon="1.28899">
        <ele>173.17</ele>
        <time>2021-05-27T13:00:14Z</time>
      </trkpt>
      <trkpt lat="43.524" lon="1.28892">
        <ele>173.17</ele>
        <time>2021-05-27T13:00:37Z</time>
      </trkpt>
      <trkpt lat="43.524" lon="1.28892">
        <ele>173.17</ele>
        <time>2021-05-27T13:01:06Z</time>
      </trkpt>
      <trkpt lat="43.52393" lon="1.28887">
        <ele>173.17</ele>
        <time>2021-05-27T13:01:20Z</time>
      </trkpt>
      <trkpt lat="43.52377" lon="1.28882">
        <ele>173.17</ele>
        <time>2021-05-27T13:01:35Z</time>
      </trkpt>
      <trkpt lat="43.5237" lon="1.28877">
        <ele>173.17</ele>
        <time>2021-05-27T13:01:41Z</time>
      </trkpt>
      <trkpt lat="43.52365" lon="1.28873">
        <ele>173.17</ele>
        <time>2021-05-27T13:01:45Z</time>
      </trkpt>
      <trkpt lat="43.52352" lon="1.28864">
        <ele>173.17</ele>
        <time>2021-05-27T13:01:57Z</time>
      </trkpt>
      <trkpt lat="43.52332" lon="1.28847">
        <ele>173.17</ele>
        <time>2021-05-27T13:02:15Z</time>
      </trkpt>
      <trkpt lat="43.52327" lon="1.28844">
        <ele>173.17</ele>
        <time>2021-05-27T13:02:20Z</time>
      </trkpt>
      <trkpt lat="43.52312" lon="1.28834">
        <ele>173.17</ele>
        <time>2021-05-27T13:02:34Z</time>
      </trkpt>
      <trkpt lat="43.52306" lon="1.28827">
        <ele>173.17</ele>
        <time>2021-05-27T13:02:41Z</time>
      </trkpt>
      <trkpt lat="43.52288" lon="1.28817">
        <ele>173.66</ele>
        <time>2021-05-27T13:02:56Z</time>
      </trkpt>
      <trkpt lat="43.52271" lon="1.28801">
        <ele>173.17</ele>
        <time>2021-05-27T13:03:12Z</time>
      </trkpt>
      <trkpt lat="43.5227" lon="1.288">
        <ele>173.66</ele>
        <time>2021-05-27T13:03:13Z</time>
      </trkpt>
      <trkpt lat="43.52249" lon="1.28786">
        <ele>173.17</ele>
        <time>2021-05-27T13:03:29Z</time>
      </trkpt>
      <trkpt lat="43.52236" lon="1.28775">
        <ele>173.17</ele>
        <time>2021-05-27T13:03:42Z</time>
      </trkpt>
      <trkpt lat="43.52223" lon="1.2876">
        <ele>173.17</ele>
        <time>2021-05-27T13:03:56Z</time>
      </trkpt>
      <trkpt lat="43.52217" lon="1.28753">
        <ele>173.17</ele>
        <time>2021-05-27T13:04:11Z</time>
      </trkpt>
      <trkpt lat="43.5221" lon="1.28744">
        <ele>173.17</ele>
        <time>2021-05-27T13:04:32Z</time>
      </trkpt>
      <trkpt lat="43.52201" lon="1.28731">
        <ele>173.17</ele>
        <time>2021-05-27T13:04:44Z</time>
      </trkpt>
      <trkpt lat="43.52186" lon="1.28717">
        <ele>173.17</ele>
        <time>2021-05-27T13:04:59Z</time>
      </trkpt>
      <trkpt lat="43.52182" lon="1.28714">
        <ele>173.17</ele>
        <time>2021-05-27T13:05:10Z</time>
      </trkpt>
      <trkpt lat="43.52185" lon="1.28718">
        <ele>173.17</ele>
        <time>2021-05-27T13:05:24Z</time>
      </trkpt>
      <trkpt lat="43.52184" lon="1.28716">
        <ele>173.17</ele>
        <time>2021-05-27T13:05:26Z</time>
      </trkpt>
      <trkpt lat="43.52177" lon="1.28696">
        <ele>173.66</ele>
        <time>2021-05-27T13:05:39Z</time>
      </trkpt>
      <trkpt lat="43.5218" lon="1.28678">
        <ele>173.66</ele>
        <time>2021-05-27T13:05:50Z</time>
      </trkpt>
      <trkpt lat="43.52189" lon="1.28666">
        <ele>173.66</ele>
        <time>2021-05-27T13:05:59Z</time>
      </trkpt>
      <trkpt lat="43.52197" lon="1.28656">
        <ele>173.66</ele>
        <time>2021-05-27T13:06:06Z</time>
      </trkpt>
      <trkpt lat="43.52203" lon="1.28645">
        <ele>173.66</ele>
        <time>2021-05-27T13:06:16Z</time>
      </trkpt>
      <trkpt lat="43.5221" lon="1.28639">
        <ele>173.66</ele>
        <time>2021-05-27T13:06:31Z</time>
      </trkpt>
      <trkpt lat="43.52207" lon="1.28639">
        <ele>173.66</ele>
        <time>2021-05-27T13:06:57Z</time>
      </trkpt>
      <trkpt lat="43.52208" lon="1.28637">
        <ele>173.66</ele>
        <time>2021-05-27T13:07:15Z</time>
      </trkpt>
      <trkpt lat="43.52207" lon="1.28637">
        <ele>174.14</ele>
        <time>2021-05-27T13:07:45Z</time>
      </trkpt>
      <trkpt lat="43.52208" lon="1.28636">
        <ele>174.14</ele>
        <time>2021-05-27T13:08:03Z</time>
      </trkpt>
      <trkpt lat="43.52205" lon="1.28635">
        <ele>174.14</ele>
        <time>2021-05-27T13:08:25Z</time>
      </trkpt>
      <trkpt lat="43.52206" lon="1.28637">
        <ele>174.14</ele>
        <time>2021-05-27T13:08:45Z</time>
      </trkpt>
      <trkpt lat="43.52206" lon="1.28638">
        <ele>173.66</ele>
        <time>2021-05-27T13:08:49Z</time>
      </trkpt>
      <trkpt lat="43.52197" lon="1.28645">
        <ele>173.66</ele>
        <time>2021-05-27T13:09:01Z</time>
      </trkpt>
      <trkpt lat="43.52185" lon="1.28668">
        <ele>173.66</ele>
        <time>2021-05-27T13:09:16Z</time>
      </trkpt>
      <trkpt lat="43.52176" lon="1.28689">
        <ele>173.66</ele>
        <time>2021-05-27T13:09:30Z</time>
      </trkpt>
      <trkpt lat="43.5218" lon="1.28714">
        <ele>173.66</ele>
        <time>2021-05-27T13:09:42Z</time>
      </trkpt>
      <trkpt lat="43.52182" lon="1.28717">
        <ele>173.66</ele>
        <time>2021-05-27T13:09:44Z</time>
      </trkpt>
      <trkpt lat="43.5219" lon="1.28724">
        <ele>173.66</ele>
        <time>2021-05-27T13:09:51Z</time>
      </trkpt>
      <trkpt lat="43.5221" lon="1.28746">
        <ele>173.66</ele>
        <time>2021-05-27T13:10:10Z</time>
      </trkpt>
      <trkpt lat="43.52226" lon="1.28766">
        <ele>173.66</ele>
        <time>2021-05-27T13:10:26Z</time>
      </trkpt>
      <trkpt lat="43.52242" lon="1.28782">
        <ele>173.66</ele>
        <time>2021-05-27T13:10:41Z</time>
      </trkpt>
      <trkpt lat="43.52247" lon="1.28787">
        <ele>173.66</ele>
        <time>2021-05-27T13:10:52Z</time>
      </trkpt>
      <trkpt lat="43.52264" lon="1.28796">
        <ele>173.66</ele>
        <time>2021-05-27T13:11:05Z</time>
      </trkpt>
      <trkpt lat="43.52284" lon="1.28816">
        <ele>173.66</ele>
        <time>2021-05-27T13:11:24Z</time>
      </trkpt>
      <trkpt lat="43.52304" lon="1.28829">
        <ele>173.66</ele>
        <time>2021-05-27T13:11:40Z</time>
      </trkpt>
      <trkpt lat="43.5232" lon="1.28841">
        <ele>173.66</ele>
        <time>2021-05-27T13:11:55Z</time>
      </trkpt>
      <trkpt lat="43.52324" lon="1.28842">
        <ele>173.66</ele>
        <time>2021-05-27T13:11:58Z</time>
      </trkpt>
      <trkpt lat="43.52349" lon="1.28862">
        <ele>173.66</ele>
        <time>2021-05-27T13:12:18Z</time>
      </trkpt>
      <trkpt lat="43.52365" lon="1.28875">
        <ele>173.66</ele>
        <time>2021-05-27T13:12:33Z</time>
      </trkpt>
      <trkpt lat="43.52381" lon="1.28883">
        <ele>173.66</ele>
        <time>2021-05-27T13:12:46Z</time>
      </trkpt>
      <trkpt lat="43.52398" lon="1.28895">
        <ele>173.66</ele>
        <time>2021-05-27T13:13:00Z</time>
      </trkpt>
      <trkpt lat="43.52399" lon="1.289">
        <ele>173.66</ele>
        <time>2021-05-27T13:13:04Z</time>
      </trkpt>
      <trkpt lat="43.52395" lon="1.28912">
        <ele>174.14</ele>
        <time>2021-05-27T13:13:16Z</time>
      </trkpt>
      <trkpt lat="43.52378" lon="1.28903">
        <ele>174.14</ele>
        <time>2021-05-27T13:13:30Z</time>
      </trkpt>
      <trkpt lat="43.52363" lon="1.28893">
        <ele>174.14</ele>
        <time>2021-05-27T13:13:44Z</time>
      </trkpt>
      <trkpt lat="43.52348" lon="1.28883">
        <ele>173.66</ele>
        <time>2021-05-27T13:13:56Z</time>
      </trkpt>
      <trkpt lat="43.52326" lon="1.28873">
        <ele>173.66</ele>
        <time>2021-05-27T13:14:14Z</time>
      </trkpt>
      <trkpt lat="43.52313" lon="1.28868">
        <ele>173.66</ele>
        <time>2021-05-27T13:14:24Z</time>
      </trkpt>
      <trkpt lat="43.52292" lon="1.28865">
        <ele>173.66</ele>
        <time>2021-05-27T13:14:41Z</time>
      </trkpt>
      <trkpt lat="43.52272" lon="1.28862">
        <ele>173.66</ele>
        <time>2021-05-27T13:14:56Z</time>
      </trkpt>
      <trkpt lat="43.52252" lon="1.2886">
        <ele>173.66</ele>
        <time>2021-05-27T13:15:10Z</time>
      </trkpt>
      <trkpt lat="43.52232" lon="1.28857">
        <ele>173.66</ele>
        <time>2021-05-27T13:15:25Z</time>
      </trkpt>
      <trkpt lat="43.52227" lon="1.28857">
        <ele>173.66</ele>
        <time>2021-05-27T13:15:29Z</time>
      </trkpt>
      <trkpt lat="43.52213" lon="1.28854">
        <ele>173.17</ele>
        <time>2021-05-27T13:15:45Z</time>
      </trkpt>
      <trkpt lat="43.52212" lon="1.28853">
        <ele>173.17</ele>
        <time>2021-05-27T13:16:08Z</time>
      </trkpt>
      <trkpt lat="43.52213" lon="1.28853">
        <ele>173.66</ele>
        <time>2021-05-27T13:16:31Z</time>
      </trkpt>
      <trkpt lat="43.52213" lon="1.28852">
        <ele>173.66</ele>
        <time>2021-05-27T13:16:55Z</time>
      </trkpt>
      <trkpt lat="43.52213" lon="1.28853">
        <ele>172.69</ele>
        <time>2021-05-27T13:17:16Z</time>
      </trkpt>
      <trkpt lat="43.52208" lon="1.28849">
        <ele>172.69</ele>
        <time>2021-05-27T13:17:37Z</time>
      </trkpt>
      <trkpt lat="43.52193" lon="1.2884">
        <ele>172.69</ele>
        <time>2021-05-27T13:17:53Z</time>
      </trkpt>
      <trkpt lat="43.52174" lon="1.2883">
        <ele>172.69</ele>
        <time>2021-05-27T13:18:07Z</time>
      </trkpt>
      <trkpt lat="43.52162" lon="1.28821">
        <ele>173.66</ele>
        <time>2021-05-27T13:18:19Z</time>
      </trkpt>
      <trkpt lat="43.52147" lon="1.28813">
        <ele>173.66</ele>
        <time>2021-05-27T13:18:33Z</time>
      </trkpt>
      <trkpt lat="43.52129" lon="1.28796">
        <ele>173.66</ele>
        <time>2021-05-27T13:18:50Z</time>
      </trkpt>
      <trkpt lat="43.52108" lon="1.28777">
        <ele>174.14</ele>
        <time>2021-05-27T13:19:07Z</time>
      </trkpt>
      <trkpt lat="43.52088" lon="1.28761">
        <ele>174.14</ele>
        <time>2021-05-27T13:19:25Z</time>
      </trkpt>
      <trkpt lat="43.52066" lon="1.28747">
        <ele>174.14</ele>
        <time>2021-05-27T13:19:42Z</time>
      </trkpt>
      <trkpt lat="43.52042" lon="1.28752">
        <ele>174.14</ele>
        <time>2021-05-27T13:19:59Z</time>
      </trkpt>
      <trkpt lat="43.52024" lon="1.28778">
        <ele>174.14</ele>
        <time>2021-05-27T13:20:18Z</time>
      </trkpt>
      <trkpt lat="43.52014" lon="1.28806">
        <ele>174.14</ele>
        <time>2021-05-27T13:20:35Z</time>
      </trkpt>
      <trkpt lat="43.52003" lon="1.28836">
        <ele>174.14</ele>
        <time>2021-05-27T13:20:52Z</time>
      </trkpt>
      <trkpt lat="43.51991" lon="1.28869">
        <ele>174.14</ele>
        <time>2021-05-27T13:21:11Z</time>
      </trkpt>
      <trkpt lat="43.51981" lon="1.28897">
        <ele>173.17</ele>
        <time>2021-05-27T13:21:27Z</time>
      </trkpt>
      <trkpt lat="43.51976" lon="1.28928">
        <ele>173.17</ele>
        <time>2021-05-27T13:21:44Z</time>
      </trkpt>
      <trkpt lat="43.5198" lon="1.28958">
        <ele>173.17</ele>
        <time>2021-05-27T13:21:59Z</time>
      </trkpt>
      <trkpt lat="43.51982" lon="1.28963">
        <ele>173.17</ele>
        <time>2021-05-27T13:22:02Z</time>
      </trkpt>
      <trkpt lat="43.51989" lon="1.28987">
        <ele>173.17</ele>
        <time>2021-05-27T13:22:16Z</time>
      </trkpt>
      <trkpt lat="43.51995" lon="1.29004">
        <ele>173.17</ele>
        <time>2021-05-27T13:22:26Z</time>
      </trkpt>
      <trkpt lat="43.51997" lon="1.29014">
        <ele>173.17</ele>
        <time>2021-05-27T13:22:41Z</time>
      </trkpt>
      <trkpt lat="43.51997" lon="1.29017">
        <ele>173.17</ele>
        <time>2021-05-27T13:22:45Z</time>
      </trkpt>
      <trkpt lat="43.51995" lon="1.29025">
        <ele>173.17</ele>
        <time>2021-05-27T13:22:51Z</time>
      </trkpt>
      <trkpt lat="43.51999" lon="1.29037">
        <ele>174.62</ele>
        <time>2021-05-27T13:22:58Z</time>
      </trkpt>
      <trkpt lat="43.52007" lon="1.2905">
        <ele>174.62</ele>
        <time>2021-05-27T13:23:08Z</time>
      </trkpt>
      <trkpt lat="43.5201" lon="1.29063">
        <ele>174.62</ele>
        <time>2021-05-27T13:23:15Z</time>
      </trkpt>
      <trkpt lat="43.5202" lon="1.29089">
        <ele>174.62</ele>
        <time>2021-05-27T13:23:31Z</time>
      </trkpt>
      <trkpt lat="43.52025" lon="1.29102">
        <ele>174.62</ele>
        <time>2021-05-27T13:23:38Z</time>
      </trkpt>
      <trkpt lat="43.52046" lon="1.29124">
        <ele>174.62</ele>
        <time>2021-05-27T13:23:57Z</time>
      </trkpt>
      <trkpt lat="43.52061" lon="1.29138">
        <ele>174.62</ele>
        <time>2021-05-27T13:24:11Z</time>
      </trkpt>
      <trkpt lat="43.52077" lon="1.29152">
        <ele>174.62</ele>
        <time>2021-05-27T13:24:24Z</time>
      </trkpt>
      <trkpt lat="43.52096" lon="1.29154">
        <ele>174.62</ele>
        <time>2021-05-27T13:24:38Z</time>
      </trkpt>
      <trkpt lat="43.52103" lon="1.29158">
        <ele>174.62</ele>
        <time>2021-05-27T13:24:44Z</time>
      </trkpt>
      <trkpt lat="43.52104" lon="1.29168">
        <ele>174.62</ele>
        <time>2021-05-27T13:24:51Z</time>
      </trkpt>
      <trkpt lat="43.521" lon="1.29181">
        <ele>174.62</ele>
        <time>2021-05-27T13:24:59Z</time>
      </trkpt>
      <trkpt lat="43.52104" lon="1.29189">
        <ele>174.62</ele>
        <time>2021-05-27T13:25:04Z</time>
      </trkpt>
      <trkpt lat="43.52114" lon="1.29199">
        <ele>173.17</ele>
        <time>2021-05-27T13:25:19Z</time>
      </trkpt>
      <trkpt lat="43.52113" lon="1.292">
        <ele>173.17</ele>
        <time>2021-05-27T13:25:22Z</time>
      </trkpt>
      <trkpt lat="43.52112" lon="1.29218">
        <ele>174.62</ele>
        <time>2021-05-27T13:25:34Z</time>
      </trkpt>
      <trkpt lat="43.52107" lon="1.29243">
        <ele>174.62</ele>
        <time>2021-05-27T13:25:49Z</time>
      </trkpt>
      <trkpt lat="43.52104" lon="1.29272">
        <ele>174.62</ele>
        <time>2021-05-27T13:26:04Z</time>
      </trkpt>
      <trkpt lat="43.52103" lon="1.29278">
        <ele>174.62</ele>
        <time>2021-05-27T13:26:09Z</time>
      </trkpt>
      <trkpt lat="43.52102" lon="1.29286">
        <ele>174.62</ele>
        <time>2021-05-27T13:26:13Z</time>
      </trkpt>
      <trkpt lat="43.52096" lon="1.29314">
        <ele>174.62</ele>
        <time>2021-05-27T13:26:29Z</time>
      </trkpt>
      <trkpt lat="43.52087" lon="1.29342">
        <ele>174.62</ele>
        <time>2021-05-27T13:26:44Z</time>
      </trkpt>
      <trkpt lat="43.52081" lon="1.2936">
        <ele>174.62</ele>
        <time>2021-05-27T13:26:56Z</time>
      </trkpt>
      <trkpt lat="43.5208" lon="1.29362">
        <ele>174.62</ele>
        <time>2021-05-27T13:27:01Z</time>
      </trkpt>
      <trkpt lat="43.52085" lon="1.2939">
        <ele>174.62</ele>
        <time>2021-05-27T13:27:17Z</time>
      </trkpt>
      <trkpt lat="43.52099" lon="1.29419">
        <ele>175.1</ele>
        <time>2021-05-27T13:27:34Z</time>
      </trkpt>
      <trkpt lat="43.52112" lon="1.29437">
        <ele>175.1</ele>
        <time>2021-05-27T13:27:48Z</time>
      </trkpt>
      <trkpt lat="43.52135" lon="1.29443">
        <ele>175.1</ele>
        <time>2021-05-27T13:28:04Z</time>
      </trkpt>
      <trkpt lat="43.52153" lon="1.29442">
        <ele>175.1</ele>
        <time>2021-05-27T13:28:22Z</time>
      </trkpt>
      <trkpt lat="43.52151" lon="1.29439">
        <ele>174.62</ele>
        <time>2021-05-27T13:28:26Z</time>
      </trkpt>
      <trkpt lat="43.52149" lon="1.2943">
        <ele>174.62</ele>
        <time>2021-05-27T13:28:32Z</time>
      </trkpt>
      <trkpt lat="43.52147" lon="1.29419">
        <ele>174.62</ele>
        <time>2021-05-27T13:28:39Z</time>
      </trkpt>
      <trkpt lat="43.52146" lon="1.29416">
        <ele>174.62</ele>
        <time>2021-05-27T13:28:55Z</time>
      </trkpt>
      <trkpt lat="43.52146" lon="1.29416">
        <ele>174.62</ele>
        <time>2021-05-27T13:29:23Z</time>
      </trkpt>
      <trkpt lat="43.52147" lon="1.29417">
        <ele>174.62</ele>
        <time>2021-05-27T13:29:52Z</time>
      </trkpt>
      <trkpt lat="43.52146" lon="1.29417">
        <ele>174.62</ele>
        <time>2021-05-27T13:30:18Z</time>
      </trkpt>
      <trkpt lat="43.52144" lon="1.29414">
        <ele>174.62</ele>
        <time>2021-05-27T13:30:46Z</time>
      </trkpt>
      <trkpt lat="43.52146" lon="1.29417">
        <ele>174.62</ele>
        <time>2021-05-27T13:31:13Z</time>
      </trkpt>
      <trkpt lat="43.52148" lon="1.29416">
        <ele>174.14</ele>
        <time>2021-05-27T13:31:34Z</time>
      </trkpt>
      <trkpt lat="43.52148" lon="1.29416">
        <ele>174.14</ele>
        <time>2021-05-27T13:31:52Z</time>
      </trkpt>
      <trkpt lat="43.5215" lon="1.29422">
        <ele>174.14</ele>
        <time>2021-05-27T13:32:00Z</time>
      </trkpt>
      <trkpt lat="43.52151" lon="1.2944">
        <ele>174.14</ele>
        <time>2021-05-27T13:32:13Z</time>
      </trkpt>
      <trkpt lat="43.52158" lon="1.2944">
        <ele>174.14</ele>
        <time>2021-05-27T13:32:21Z</time>
      </trkpt>
      <trkpt lat="43.52171" lon="1.29438">
        <ele>174.14</ele>
        <time>2021-05-27T13:32:33Z</time>
      </trkpt>
      <trkpt lat="43.52189" lon="1.2944">
        <ele>174.62</ele>
        <time>2021-05-27T13:32:49Z</time>
      </trkpt>
      <trkpt lat="43.5219" lon="1.2944">
        <ele>174.14</ele>
        <time>2021-05-27T13:33:06Z</time>
      </trkpt>
      <trkpt lat="43.52191" lon="1.29439">
        <ele>174.62</ele>
        <time>2021-05-27T13:33:24Z</time>
      </trkpt>
      <trkpt lat="43.5219" lon="1.29441">
        <ele>174.62</ele>
        <time>2021-05-27T13:33:48Z</time>
      </trkpt>
      <trkpt lat="43.52189" lon="1.2944">
        <ele>174.62</ele>
        <time>2021-05-27T13:34:16Z</time>
      </trkpt>
      <trkpt lat="43.52193" lon="1.29442">
        <ele>174.14</ele>
        <time>2021-05-27T13:34:59Z</time>
      </trkpt>
      <trkpt lat="43.52189" lon="1.29441">
        <ele>174.14</ele>
        <time>2021-05-27T13:35:25Z</time>
      </trkpt>
      <trkpt lat="43.52186" lon="1.29439">
        <ele>174.14</ele>
        <time>2021-05-27T13:35:51Z</time>
      </trkpt>
      <trkpt lat="43.52187" lon="1.29439">
        <ele>174.14</ele>
        <time>2021-05-27T13:36:20Z</time>
      </trkpt>
      <trkpt lat="43.52189" lon="1.29442">
        <ele>174.62</ele>
        <time>2021-05-27T13:36:36Z</time>
      </trkpt>
      <trkpt lat="43.5219" lon="1.29443">
        <ele>174.62</ele>
        <time>2021-05-27T13:37:02Z</time>
      </trkpt>
      <trkpt lat="43.52196" lon="1.29443">
        <ele>174.62</ele>
        <time>2021-05-27T13:37:22Z</time>
      </trkpt>
      <trkpt lat="43.52198" lon="1.29443">
        <ele>174.14</ele>
        <time>2021-05-27T13:37:46Z</time>
      </trkpt>
      <trkpt lat="43.52209" lon="1.29444">
        <ele>174.14</ele>
        <time>2021-05-27T13:38:02Z</time>
      </trkpt>
      <trkpt lat="43.5221" lon="1.29443">
        <ele>172.21</ele>
        <time>2021-05-27T13:38:21Z</time>
      </trkpt>
      <trkpt lat="43.5221" lon="1.29443">
        <ele>172.21</ele>
        <time>2021-05-27T13:38:22Z</time>
      </trkpt>
      <trkpt lat="43.5221" lon="1.29443">
        <ele>173.66</ele>
        <time>2021-05-27T13:38:24Z</time>
      </trkpt>
      <trkpt lat="43.52209" lon="1.29441">
        <ele>173.66</ele>
        <time>2021-05-27T13:38:48Z</time>
      </trkpt>
      <trkpt lat="43.52211" lon="1.29442">
        <ele>173.66</ele>
        <time>2021-05-27T13:39:07Z</time>
      </trkpt>
      <trkpt lat="43.52217" lon="1.29443">
        <ele>173.17</ele>
        <time>2021-05-27T13:39:18Z</time>
      </trkpt>
      <trkpt lat="43.52224" lon="1.29442">
        <ele>173.17</ele>
        <time>2021-05-27T13:39:29Z</time>
      </trkpt>
      <trkpt lat="43.52249" lon="1.29446">
        <ele>173.17</ele>
        <time>2021-05-27T13:39:50Z</time>
      </trkpt>
      <trkpt lat="43.52253" lon="1.2945">
        <ele>172.69</ele>
        <time>2021-05-27T13:40:05Z</time>
      </trkpt>
      <trkpt lat="43.52264" lon="1.29459">
        <ele>172.69</ele>
        <time>2021-05-27T13:40:24Z</time>
      </trkpt>
      <trkpt lat="43.52269" lon="1.29462">
        <ele>172.69</ele>
        <time>2021-05-27T13:40:28Z</time>
      </trkpt>
      <trkpt lat="43.52292" lon="1.2948">
        <ele>173.17</ele>
        <time>2021-05-27T13:40:48Z</time>
      </trkpt>
      <trkpt lat="43.52304" lon="1.29485">
        <ele>174.14</ele>
        <time>2021-05-27T13:40:57Z</time>
      </trkpt>
      <trkpt lat="43.52306" lon="1.29487">
        <ele>173.17</ele>
        <time>2021-05-27T13:40:59Z</time>
      </trkpt>
      <trkpt lat="43.52308" lon="1.29488">
        <ele>173.17</ele>
        <time>2021-05-27T13:41:00Z</time>
      </trkpt>
      <trkpt lat="43.52314" lon="1.29489">
        <ele>173.17</ele>
        <time>2021-05-27T13:41:04Z</time>
      </trkpt>
      <trkpt lat="43.5232" lon="1.29492">
        <ele>172.69</ele>
        <time>2021-05-27T13:41:09Z</time>
      </trkpt>
      <trkpt lat="43.52335" lon="1.29504">
        <ele>172.69</ele>
        <time>2021-05-27T13:41:23Z</time>
      </trkpt>
      <trkpt lat="43.52338" lon="1.29508">
        <ele>172.69</ele>
        <time>2021-05-27T13:41:27Z</time>
      </trkpt>
      <trkpt lat="43.52345" lon="1.29516">
        <ele>173.66</ele>
        <time>2021-05-27T13:41:34Z</time>
      </trkpt>
      <trkpt lat="43.52351" lon="1.2953">
        <ele>173.66</ele>
        <time>2021-05-27T13:41:45Z</time>
      </trkpt>
      <trkpt lat="43.52353" lon="1.29524">
        <ele>174.62</ele>
        <time>2021-05-27T13:41:58Z</time>
      </trkpt>
      <trkpt lat="43.52353" lon="1.29524">
        <ele>174.62</ele>
        <time>2021-05-27T13:42:23Z</time>
      </trkpt>
      <trkpt lat="43.52353" lon="1.29524">
        <ele>174.62</ele>
        <time>2021-05-27T13:42:43Z</time>
      </trkpt>
      <trkpt lat="43.52353" lon="1.29522">
        <ele>174.14</ele>
        <time>2021-05-27T13:43:11Z</time>
      </trkpt>
      <trkpt lat="43.52351" lon="1.29521">
        <ele>174.14</ele>
        <time>2021-05-27T13:43:28Z</time>
      </trkpt>
      <trkpt lat="43.5235" lon="1.29519">
        <ele>174.14</ele>
        <time>2021-05-27T13:43:41Z</time>
      </trkpt>
      <trkpt lat="43.52336" lon="1.29501">
        <ele>173.17</ele>
        <time>2021-05-27T13:43:58Z</time>
      </trkpt>
      <trkpt lat="43.52334" lon="1.29496">
        <ele>172.69</ele>
        <time>2021-05-27T13:44:12Z</time>
      </trkpt>
      <trkpt lat="43.52322" lon="1.29488">
        <ele>172.69</ele>
        <time>2021-05-27T13:44:26Z</time>
      </trkpt>
      <trkpt lat="43.523" lon="1.29475">
        <ele>172.21</ele>
        <time>2021-05-27T13:44:44Z</time>
      </trkpt>
      <trkpt lat="43.52281" lon="1.29461">
        <ele>172.21</ele>
        <time>2021-05-27T13:45:01Z</time>
      </trkpt>
      <trkpt lat="43.52259" lon="1.29448">
        <ele>171.73</ele>
        <time>2021-05-27T13:45:18Z</time>
      </trkpt>
      <trkpt lat="43.52236" lon="1.29439">
        <ele>171.73</ele>
        <time>2021-05-27T13:45:34Z</time>
      </trkpt>
      <trkpt lat="43.52212" lon="1.29439">
        <ele>171.73</ele>
        <time>2021-05-27T13:45:52Z</time>
      </trkpt>
      <trkpt lat="43.52193" lon="1.29436">
        <ele>171.73</ele>
        <time>2021-05-27T13:46:05Z</time>
      </trkpt>
      <trkpt lat="43.52178" lon="1.29435">
        <ele>171.73</ele>
        <time>2021-05-27T13:46:17Z</time>
      </trkpt>
      <trkpt lat="43.52155" lon="1.29441">
        <ele>171.73</ele>
        <time>2021-05-27T13:46:33Z</time>
      </trkpt>
      <trkpt lat="43.52133" lon="1.29456">
        <ele>171.73</ele>
        <time>2021-05-27T13:46:51Z</time>
      </trkpt>
      <trkpt lat="43.52128" lon="1.2948">
        <ele>171.73</ele>
        <time>2021-05-27T13:47:03Z</time>
      </trkpt>
      <trkpt lat="43.52129" lon="1.29508">
        <ele>171.73</ele>
        <time>2021-05-27T13:47:19Z</time>
      </trkpt>
      <trkpt lat="43.52127" lon="1.29532">
        <ele>171.73</ele>
        <time>2021-05-27T13:47:33Z</time>
      </trkpt>
      <trkpt lat="43.52129" lon="1.29559">
        <ele>171.73</ele>
        <time>2021-05-27T13:47:48Z</time>
      </trkpt>
      <trkpt lat="43.5213" lon="1.29567">
        <ele>171.73</ele>
        <time>2021-05-27T13:47:54Z</time>
      </trkpt>
      <trkpt lat="43.52121" lon="1.29599">
        <ele>171.25</ele>
        <time>2021-05-27T13:48:11Z</time>
      </trkpt>
      <trkpt lat="43.52114" lon="1.29636">
        <ele>171.25</ele>
        <time>2021-05-27T13:48:31Z</time>
      </trkpt>
      <trkpt lat="43.52105" lon="1.29671">
        <ele>171.25</ele>
        <time>2021-05-27T13:48:51Z</time>
      </trkpt>
      <trkpt lat="43.52098" lon="1.29706">
        <ele>170.77</ele>
        <time>2021-05-27T13:49:08Z</time>
      </trkpt>
      <trkpt lat="43.5209" lon="1.29733">
        <ele>170.77</ele>
        <time>2021-05-27T13:49:24Z</time>
      </trkpt>
      <trkpt lat="43.52083" lon="1.29758">
        <ele>170.77</ele>
        <time>2021-05-27T13:49:38Z</time>
      </trkpt>
      <trkpt lat="43.52074" lon="1.29791">
        <ele>170.29</ele>
        <time>2021-05-27T13:49:55Z</time>
      </trkpt>
      <trkpt lat="43.52068" lon="1.29818">
        <ele>170.29</ele>
        <time>2021-05-27T13:50:12Z</time>
      </trkpt>
      <trkpt lat="43.5207" lon="1.29828">
        <ele>171.25</ele>
        <time>2021-05-27T13:50:19Z</time>
      </trkpt>
      <trkpt lat="43.52078" lon="1.29832">
        <ele>169.81</ele>
        <time>2021-05-27T13:50:26Z</time>
      </trkpt>
      <trkpt lat="43.52098" lon="1.29846">
        <ele>169.33</ele>
        <time>2021-05-27T13:50:44Z</time>
      </trkpt>
      <trkpt lat="43.52117" lon="1.29855">
        <ele>169.33</ele>
        <time>2021-05-27T13:50:58Z</time>
      </trkpt>
      <trkpt lat="43.52125" lon="1.29863">
        <ele>169.33</ele>
        <time>2021-05-27T13:51:07Z</time>
      </trkpt>
      <trkpt lat="43.52135" lon="1.29868">
        <ele>169.33</ele>
        <time>2021-05-27T13:51:15Z</time>
      </trkpt>
      <trkpt lat="43.5215" lon="1.2987">
        <ele>169.33</ele>
        <time>2021-05-27T13:51:32Z</time>
      </trkpt>
      <trkpt lat="43.52153" lon="1.29871">
        <ele>169.33</ele>
        <time>2021-05-27T13:51:56Z</time>
      </trkpt>
      <trkpt lat="43.52152" lon="1.29873">
        <ele>168.85</ele>
        <time>2021-05-27T13:52:16Z</time>
      </trkpt>
      <trkpt lat="43.52159" lon="1.2988">
        <ele>168.85</ele>
        <time>2021-05-27T13:52:32Z</time>
      </trkpt>
      <trkpt lat="43.52159" lon="1.2988">
        <ele>168.85</ele>
        <time>2021-05-27T13:52:33Z</time>
      </trkpt>
      <trkpt lat="43.52174" lon="1.29888">
        <ele>168.85</ele>
        <time>2021-05-27T13:52:46Z</time>
      </trkpt>
      <trkpt lat="43.52175" lon="1.29889">
        <ele>168.85</ele>
        <time>2021-05-27T13:52:47Z</time>
      </trkpt>
      <trkpt lat="43.52179" lon="1.29893">
        <ele>168.85</ele>
        <time>2021-05-27T13:52:51Z</time>
      </trkpt>
      <trkpt lat="43.52198" lon="1.29906">
        <ele>168.85</ele>
        <time>2021-05-27T13:53:08Z</time>
      </trkpt>
      <trkpt lat="43.52222" lon="1.29921">
        <ele>170.29</ele>
        <time>2021-05-27T13:53:27Z</time>
      </trkpt>
      <trkpt lat="43.52242" lon="1.29932">
        <ele>169.81</ele>
        <time>2021-05-27T13:53:43Z</time>
      </trkpt>
      <trkpt lat="43.5226" lon="1.29943">
        <ele>169.81</ele>
        <time>2021-05-27T13:53:58Z</time>
      </trkpt>
      <trkpt lat="43.52283" lon="1.29958">
        <ele>169.81</ele>
        <time>2021-05-27T13:54:16Z</time>
      </trkpt>
      <trkpt lat="43.52302" lon="1.29969">
        <ele>169.81</ele>
        <time>2021-05-27T13:54:31Z</time>
      </trkpt>
      <trkpt lat="43.5232" lon="1.29975">
        <ele>169.81</ele>
        <time>2021-05-27T13:54:49Z</time>
      </trkpt>
      <trkpt lat="43.5233" lon="1.29978">
        <ele>169.81</ele>
        <time>2021-05-27T13:55:05Z</time>
      </trkpt>
      <trkpt lat="43.52335" lon="1.29979">
        <ele>169.81</ele>
        <time>2021-05-27T13:55:17Z</time>
      </trkpt>
      <trkpt lat="43.52336" lon="1.29982">
        <ele>169.81</ele>
        <time>2021-05-27T13:55:21Z</time>
      </trkpt>
      <trkpt lat="43.52336" lon="1.29986">
        <ele>169.33</ele>
        <time>2021-05-27T13:55:35Z</time>
      </trkpt>
      <trkpt lat="43.52337" lon="1.29985">
        <ele>169.33</ele>
        <time>2021-05-27T13:55:44Z</time>
      </trkpt>
      <trkpt lat="43.52339" lon="1.29985">
        <ele>169.33</ele>
        <time>2021-05-27T13:55:46Z</time>
      </trkpt>
      <trkpt lat="43.52355" lon="1.29997">
        <ele>169.33</ele>
        <time>2021-05-27T13:56:01Z</time>
      </trkpt>
      <trkpt lat="43.52359" lon="1.3">
        <ele>169.33</ele>
        <time>2021-05-27T13:56:04Z</time>
      </trkpt>
      <trkpt lat="43.5237" lon="1.30009">
        <ele>169.81</ele>
        <time>2021-05-27T13:56:16Z</time>
      </trkpt>
      <trkpt lat="43.52366" lon="1.30028">
        <ele>169.81</ele>
        <time>2021-05-27T13:56:29Z</time>
      </trkpt>
      <trkpt lat="43.5236" lon="1.30044">
        <ele>169.81</ele>
        <time>2021-05-27T13:56:40Z</time>
      </trkpt>
      <trkpt lat="43.52357" lon="1.30053">
        <ele>169.81</ele>
        <time>2021-05-27T13:56:53Z</time>
      </trkpt>
      <trkpt lat="43.52355" lon="1.30058">
        <ele>169.81</ele>
        <time>2021-05-27T13:57:01Z</time>
      </trkpt>
      <trkpt lat="43.52347" lon="1.30081">
        <ele>169.81</ele>
        <time>2021-05-27T13:57:15Z</time>
      </trkpt>
      <trkpt lat="43.52345" lon="1.30095">
        <ele>169.81</ele>
        <time>2021-05-27T13:57:23Z</time>
      </trkpt>
      <trkpt lat="43.5235" lon="1.30111">
        <ele>168.85</ele>
        <time>2021-05-27T13:57:36Z</time>
      </trkpt>
      <trkpt lat="43.52361" lon="1.30124">
        <ele>168.85</ele>
        <time>2021-05-27T13:57:51Z</time>
      </trkpt>
      <trkpt lat="43.52367" lon="1.30129">
        <ele>168.85</ele>
        <time>2021-05-27T13:57:56Z</time>
      </trkpt>
      <trkpt lat="43.52386" lon="1.30137">
        <ele>168.85</ele>
        <time>2021-05-27T13:58:10Z</time>
      </trkpt>
      <trkpt lat="43.52401" lon="1.30145">
        <ele>168.85</ele>
        <time>2021-05-27T13:58:23Z</time>
      </trkpt>
      <trkpt lat="43.5242" lon="1.30151">
        <ele>168.37</ele>
        <time>2021-05-27T13:58:37Z</time>
      </trkpt>
      <trkpt lat="43.52441" lon="1.30163">
        <ele>168.37</ele>
        <time>2021-05-27T13:58:52Z</time>
      </trkpt>
      <trkpt lat="43.52459" lon="1.30169">
        <ele>168.37</ele>
        <time>2021-05-27T13:59:06Z</time>
      </trkpt>
      <trkpt lat="43.52474" lon="1.30177">
        <ele>168.37</ele>
        <time>2021-05-27T13:59:17Z</time>
      </trkpt>
      <trkpt lat="43.52486" lon="1.30181">
        <ele>168.37</ele>
        <time>2021-05-27T13:59:27Z</time>
      </trkpt>
      <trkpt lat="43.52502" lon="1.30184">
        <ele>168.37</ele>
        <time>2021-05-27T13:59:40Z</time>
      </trkpt>
      <trkpt lat="43.52518" lon="1.30189">
        <ele>168.37</ele>
        <time>2021-05-27T13:59:52Z</time>
      </trkpt>
      <trkpt lat="43.52531" lon="1.30184">
        <ele>168.37</ele>
        <time>2021-05-27T14:00:00Z</time>
      </trkpt>
      <trkpt lat="43.52543" lon="1.30161">
        <ele>168.37</ele>
        <time>2021-05-27T14:00:14Z</time>
      </trkpt>
      <trkpt lat="43.52551" lon="1.3014">
        <ele>168.37</ele>
        <time>2021-05-27T14:00:28Z</time>
      </trkpt>
      <trkpt lat="43.52554" lon="1.3013">
        <ele>168.37</ele>
        <time>2021-05-27T14:00:34Z</time>
      </trkpt>
      <trkpt lat="43.52557" lon="1.30123">
        <ele>168.37</ele>
        <time>2021-05-27T14:00:39Z</time>
      </trkpt>
      <trkpt lat="43.52564" lon="1.30107">
        <ele>167.89</ele>
        <time>2021-05-27T14:00:49Z</time>
      </trkpt>
      <trkpt lat="43.52567" lon="1.30095">
        <ele>167.89</ele>
        <time>2021-05-27T14:00:55Z</time>
      </trkpt>
      <trkpt lat="43.52575" lon="1.30082">
        <ele>167.89</ele>
        <time>2021-05-27T14:01:03Z</time>
      </trkpt>
      <trkpt lat="43.52576" lon="1.3007">
        <ele>167.89</ele>
        <time>2021-05-27T14:01:10Z</time>
      </trkpt>
      <trkpt lat="43.52587" lon="1.30046">
        <ele>169.33</ele>
        <time>2021-05-27T14:01:25Z</time>
      </trkpt>
      <trkpt lat="43.52592" lon="1.30038">
        <ele>169.33</ele>
        <time>2021-05-27T14:01:30Z</time>
      </trkpt>
      <trkpt lat="43.52596" lon="1.3003">
        <ele>169.33</ele>
        <time>2021-05-27T14:01:35Z</time>
      </trkpt>
      <trkpt lat="43.52598" lon="1.30023">
        <ele>169.33</ele>
        <time>2021-05-27T14:01:39Z</time>
      </trkpt>
      <trkpt lat="43.52612" lon="1.29997">
        <ele>168.85</ele>
        <time>2021-05-27T14:01:54Z</time>
      </trkpt>
      <trkpt lat="43.52617" lon="1.29989">
        <ele>168.85</ele>
        <time>2021-05-27T14:01:59Z</time>
      </trkpt>
      <trkpt lat="43.52629" lon="1.29964">
        <ele>168.85</ele>
        <time>2021-05-27T14:02:15Z</time>
      </trkpt>
      <trkpt lat="43.52637" lon="1.2994">
        <ele>168.85</ele>
        <time>2021-05-27T14:02:29Z</time>
      </trkpt>
      <trkpt lat="43.52638" lon="1.29939">
        <ele>168.85</ele>
        <time>2021-05-27T14:02:30Z</time>
      </trkpt>
      <trkpt lat="43.52641" lon="1.29927">
        <ele>168.85</ele>
        <time>2021-05-27T14:02:37Z</time>
      </trkpt>
      <trkpt lat="43.52651" lon="1.29901">
        <ele>168.85</ele>
        <time>2021-05-27T14:02:53Z</time>
      </trkpt>
      <trkpt lat="43.52658" lon="1.29884">
        <ele>168.85</ele>
        <time>2021-05-27T14:03:04Z</time>
      </trkpt>
      <trkpt lat="43.52666" lon="1.2986">
        <ele>168.85</ele>
        <time>2021-05-27T14:03:17Z</time>
      </trkpt>
      <trkpt lat="43.52668" lon="1.29852">
        <ele>168.85</ele>
        <time>2021-05-27T14:03:22Z</time>
      </trkpt>
      <trkpt lat="43.52672" lon="1.29847">
        <ele>168.85</ele>
        <time>2021-05-27T14:03:26Z</time>
      </trkpt>
      <trkpt lat="43.5268" lon="1.29821">
        <ele>168.85</ele>
        <time>2021-05-27T14:03:41Z</time>
      </trkpt>
      <trkpt lat="43.52689" lon="1.29796">
        <ele>168.85</ele>
        <time>2021-05-27T14:03:54Z</time>
      </trkpt>
      <trkpt lat="43.52697" lon="1.29771">
        <ele>168.37</ele>
        <time>2021-05-27T14:04:09Z</time>
      </trkpt>
      <trkpt lat="43.52705" lon="1.29745">
        <ele>168.37</ele>
        <time>2021-05-27T14:04:25Z</time>
      </trkpt>
      <trkpt lat="43.52711" lon="1.29718">
        <ele>168.85</ele>
        <time>2021-05-27T14:04:39Z</time>
      </trkpt>
      <trkpt lat="43.52718" lon="1.29698">
        <ele>168.85</ele>
        <time>2021-05-27T14:04:52Z</time>
      </trkpt>
      <trkpt lat="43.52727" lon="1.29671">
        <ele>168.85</ele>
        <time>2021-05-27T14:05:07Z</time>
      </trkpt>
      <trkpt lat="43.52728" lon="1.29666">
        <ele>168.85</ele>
        <time>2021-05-27T14:05:11Z</time>
      </trkpt>
      <trkpt lat="43.52736" lon="1.29641">
        <ele>168.85</ele>
        <time>2021-05-27T14:05:25Z</time>
      </trkpt>
      <trkpt lat="43.52739" lon="1.2963">
        <ele>168.85</ele>
        <time>2021-05-27T14:05:30Z</time>
      </trkpt>
      <trkpt lat="43.5274" lon="1.29607">
        <ele>168.85</ele>
        <time>2021-05-27T14:05:46Z</time>
      </trkpt>
      <trkpt lat="43.52738" lon="1.29605">
        <ele>168.85</ele>
        <time>2021-05-27T14:06:09Z</time>
      </trkpt>
      <trkpt lat="43.52734" lon="1.29605">
        <ele>168.85</ele>
        <time>2021-05-27T14:06:45Z</time>
      </trkpt>
      <trkpt lat="43.52734" lon="1.29604">
        <ele>168.85</ele>
        <time>2021-05-27T14:07:15Z</time>
      </trkpt>
      <trkpt lat="43.52735" lon="1.29603">
        <ele>168.85</ele>
        <time>2021-05-27T14:07:37Z</time>
      </trkpt>
      <trkpt lat="43.52734" lon="1.29605">
        <ele>168.85</ele>
        <time>2021-05-27T14:07:42Z</time>
      </trkpt>
      <trkpt lat="43.52729" lon="1.29611">
        <ele>170.29</ele>
        <time>2021-05-27T14:07:49Z</time>
      </trkpt>
      <trkpt lat="43.52721" lon="1.2961">
        <ele>170.77</ele>
        <time>2021-05-27T14:07:57Z</time>
      </trkpt>
      <trkpt lat="43.52708" lon="1.29589">
        <ele>171.25</ele>
        <time>2021-05-27T14:08:15Z</time>
      </trkpt>
      <trkpt lat="43.52695" lon="1.29571">
        <ele>171.25</ele>
        <time>2021-05-27T14:08:29Z</time>
      </trkpt>
      <trkpt lat="43.52683" lon="1.29555">
        <ele>171.25</ele>
        <time>2021-05-27T14:08:44Z</time>
      </trkpt>
      <trkpt lat="43.52684" lon="1.29553">
        <ele>171.25</ele>
        <time>2021-05-27T14:09:06Z</time>
      </trkpt>
      <trkpt lat="43.52683" lon="1.2955">
        <ele>171.25</ele>
        <time>2021-05-27T14:09:10Z</time>
      </trkpt>
      <trkpt lat="43.52677" lon="1.2953">
        <ele>169.81</ele>
        <time>2021-05-27T14:09:22Z</time>
      </trkpt>
      <trkpt lat="43.52671" lon="1.29506">
        <ele>169.81</ele>
        <time>2021-05-27T14:09:36Z</time>
      </trkpt>
      <trkpt lat="43.52663" lon="1.2949">
        <ele>169.33</ele>
        <time>2021-05-27T14:09:49Z</time>
      </trkpt>
      <trkpt lat="43.52653" lon="1.29477">
        <ele>169.33</ele>
        <time>2021-05-27T14:10:00Z</time>
      </trkpt>
      <trkpt lat="43.52651" lon="1.29475">
        <ele>168.85</ele>
        <time>2021-05-27T14:10:02Z</time>
      </trkpt>
      <trkpt lat="43.52649" lon="1.29473">
        <ele>168.85</ele>
        <time>2021-05-27T14:10:04Z</time>
      </trkpt>
      <trkpt lat="43.52632" lon="1.2945">
        <ele>168.37</ele>
        <time>2021-05-27T14:10:22Z</time>
      </trkpt>
      <trkpt lat="43.52632" lon="1.2945">
        <ele>168.37</ele>
        <time>2021-05-27T14:10:23Z</time>
      </trkpt>
      <trkpt lat="43.52613" lon="1.29438">
        <ele>168.37</ele>
        <time>2021-05-27T14:10:37Z</time>
      </trkpt>
      <trkpt lat="43.52597" lon="1.29427">
        <ele>168.37</ele>
        <time>2021-05-27T14:10:49Z</time>
      </trkpt>
      <trkpt lat="43.52579" lon="1.29414">
        <ele>168.37</ele>
        <time>2021-05-27T14:11:03Z</time>
      </trkpt>
      <trkpt lat="43.52563" lon="1.29405">
        <ele>168.37</ele>
        <time>2021-05-27T14:11:17Z</time>
      </trkpt>
      <trkpt lat="43.52552" lon="1.29399">
        <ele>167.89</ele>
        <time>2021-05-27T14:11:26Z</time>
      </trkpt>
      <trkpt lat="43.52545" lon="1.29392">
        <ele>167.41</ele>
        <time>2021-05-27T14:11:32Z</time>
      </trkpt>
      <trkpt lat="43.52536" lon="1.29382">
        <ele>167.89</ele>
        <time>2021-05-27T14:11:41Z</time>
      </trkpt>
      <trkpt lat="43.52541" lon="1.29362">
        <ele>167.89</ele>
        <time>2021-05-27T14:11:55Z</time>
      </trkpt>
      <trkpt lat="43.52542" lon="1.29356">
        <ele>167.41</ele>
        <time>2021-05-27T14:12:00Z</time>
      </trkpt>
      <trkpt lat="43.52543" lon="1.29348">
        <ele>167.89</ele>
        <time>2021-05-27T14:12:05Z</time>
      </trkpt>
      <trkpt lat="43.52543" lon="1.29342">
        <ele>167.89</ele>
        <time>2021-05-27T14:12:08Z</time>
      </trkpt>
      <trkpt lat="43.52545" lon="1.29329">
        <ele>167.89</ele>
        <time>2021-05-27T14:12:14Z</time>
      </trkpt>
      <trkpt lat="43.52546" lon="1.29302">
        <ele>167.89</ele>
        <time>2021-05-27T14:12:30Z</time>
      </trkpt>
      <trkpt lat="43.52547" lon="1.29296">
        <ele>167.89</ele>
        <time>2021-05-27T14:12:42Z</time>
      </trkpt>
      <trkpt lat="43.52547" lon="1.29294">
        <ele>169.33</ele>
        <time>2021-05-27T14:13:09Z</time>
      </trkpt>
      <trkpt lat="43.52547" lon="1.29294">
        <ele>169.33</ele>
        <time>2021-05-27T14:13:10Z</time>
      </trkpt>
      <trkpt lat="43.52541" lon="1.29295">
        <ele>169.33</ele>
        <time>2021-05-27T14:13:37Z</time>
      </trkpt>
      <trkpt lat="43.52543" lon="1.29297">
        <ele>169.33</ele>
        <time>2021-05-27T14:14:06Z</time>
      </trkpt>
      <trkpt lat="43.52542" lon="1.29298">
        <ele>169.33</ele>
        <time>2021-05-27T14:14:27Z</time>
      </trkpt>
      <trkpt lat="43.52542" lon="1.29298">
        <ele>169.33</ele>
        <time>2021-05-27T14:14:46Z</time>
      </trkpt>
      <trkpt lat="43.52542" lon="1.29297">
        <ele>169.33</ele>
        <time>2021-05-27T14:15:09Z</time>
      </trkpt>
      <trkpt lat="43.52542" lon="1.29298">
        <ele>169.33</ele>
        <time>2021-05-27T14:15:36Z</time>
      </trkpt>
      <trkpt lat="43.52541" lon="1.29296">
        <ele>169.33</ele>
        <time>2021-05-27T14:16:05Z</time>
      </trkpt>
      <trkpt lat="43.52543" lon="1.29297">
        <ele>169.33</ele>
        <time>2021-05-27T14:16:30Z</time>
      </trkpt>
      <trkpt lat="43.52543" lon="1.29297">
        <ele>169.33</ele>
        <time>2021-05-27T14:16:57Z</time>
      </trkpt>
      <trkpt lat="43.52541" lon="1.29295">
        <ele>169.33</ele>
        <time>2021-05-27T14:17:22Z</time>
      </trkpt>
      <trkpt lat="43.52544" lon="1.29289">
        <ele>169.33</ele>
        <time>2021-05-27T14:17:30Z</time>
      </trkpt>
      <trkpt lat="43.52551" lon="1.29274">
        <ele>169.33</ele>
        <time>2021-05-27T14:17:48Z</time>
      </trkpt>
      <trkpt lat="43.52557" lon="1.29256">
        <ele>169.33</ele>
        <time>2021-05-27T14:18:04Z</time>
      </trkpt>
      <trkpt lat="43.52557" lon="1.29249">
        <ele>169.33</ele>
        <time>2021-05-27T14:18:09Z</time>
      </trkpt>
      <trkpt lat="43.5255" lon="1.2922">
        <ele>168.37</ele>
        <time>2021-05-27T14:18:28Z</time>
      </trkpt>
      <trkpt lat="43.52541" lon="1.29193">
        <ele>167.89</ele>
        <time>2021-05-27T14:18:47Z</time>
      </trkpt>
      <trkpt lat="43.52538" lon="1.29183">
        <ele>167.89</ele>
        <time>2021-05-27T14:19:20Z</time>
      </trkpt>
      <trkpt lat="43.52536" lon="1.29182">
        <ele>167.89</ele>
        <time>2021-05-27T14:19:55Z</time>
      </trkpt>
      <trkpt lat="43.52534" lon="1.29183">
        <ele>167.89</ele>
        <time>2021-05-27T14:20:22Z</time>
      </trkpt>
      <trkpt lat="43.52522" lon="1.29182">
        <ele>168.85</ele>
        <time>2021-05-27T14:20:37Z</time>
      </trkpt>
      <trkpt lat="43.52518" lon="1.2918">
        <ele>169.33</ele>
        <time>2021-05-27T14:20:42Z</time>
      </trkpt>
      <trkpt lat="43.52497" lon="1.29176">
        <ele>169.33</ele>
        <time>2021-05-27T14:21:00Z</time>
      </trkpt>
      <trkpt lat="43.52495" lon="1.29177">
        <ele>169.33</ele>
        <time>2021-05-27T14:21:03Z</time>
      </trkpt>
      <trkpt lat="43.52473" lon="1.29188">
        <ele>169.81</ele>
        <time>2021-05-27T14:21:22Z</time>
      </trkpt>
      <trkpt lat="43.52449" lon="1.29191">
        <ele>169.81</ele>
        <time>2021-05-27T14:21:41Z</time>
      </trkpt>
      <trkpt lat="43.52424" lon="1.29175">
        <ele>170.29</ele>
        <time>2021-05-27T14:22:02Z</time>
      </trkpt>
      <trkpt lat="43.52406" lon="1.2915">
        <ele>170.29</ele>
        <time>2021-05-27T14:22:22Z</time>
      </trkpt>
      <trkpt lat="43.52391" lon="1.29125">
        <ele>170.29</ele>
        <time>2021-05-27T14:22:42Z</time>
      </trkpt>
      <trkpt lat="43.52391" lon="1.29124">
        <ele>170.29</ele>
        <time>2021-05-27T14:22:43Z</time>
      </trkpt>
      <trkpt lat="43.5239" lon="1.29125">
        <ele>170.29</ele>
        <time>2021-05-27T14:22:58Z</time>
      </trkpt>
      <trkpt lat="43.5239" lon="1.29124">
        <ele>170.77</ele>
        <time>2021-05-27T14:23:18Z</time>
      </trkpt>
      <trkpt lat="43.52389" lon="1.29126">
        <ele>170.77</ele>
        <time>2021-05-27T14:23:40Z</time>
      </trkpt>
      <trkpt lat="43.52389" lon="1.29123">
        <ele>170.77</ele>
        <time>2021-05-27T14:23:49Z</time>
      </trkpt>
      <trkpt lat="43.52394" lon="1.29103">
        <ele>170.77</ele>
        <time>2021-05-27T14:24:03Z</time>
      </trkpt>
      <trkpt lat="43.52397" lon="1.29086">
        <ele>170.77</ele>
        <time>2021-05-27T14:24:17Z</time>
      </trkpt>
      <trkpt lat="43.52397" lon="1.29085">
        <ele>170.77</ele>
        <time>2021-05-27T14:24:25Z</time>
      </trkpt>
      <trkpt lat="43.52399" lon="1.29084">
        <ele>170.77</ele>
        <time>2021-05-27T14:24:28Z</time>
      </trkpt>
      <trkpt lat="43.52404" lon="1.29082">
        <ele>168.85</ele>
        <time>2021-05-27T14:24:43Z</time>
      </trkpt>
      <trkpt lat="43.52401" lon="1.29087">
        <ele>168.85</ele>
        <time>2021-05-27T14:25:01Z</time>
      </trkpt>
      <trkpt lat="43.52393" lon="1.29105">
        <ele>169.81</ele>
        <time>2021-05-27T14:25:15Z</time>
      </trkpt>
      <trkpt lat="43.52392" lon="1.29109">
        <ele>169.81</ele>
        <time>2021-05-27T14:25:29Z</time>
      </trkpt>
      <trkpt lat="43.52387" lon="1.29129">
        <ele>170.29</ele>
        <time>2021-05-27T14:25:44Z</time>
      </trkpt>
      <trkpt lat="43.52377" lon="1.29151">
        <ele>170.29</ele>
        <time>2021-05-27T14:26:01Z</time>
      </trkpt>
      <trkpt lat="43.52372" lon="1.29177">
        <ele>170.29</ele>
        <time>2021-05-27T14:26:17Z</time>
      </trkpt>
      <trkpt lat="43.52369" lon="1.29204">
        <ele>170.29</ele>
        <time>2021-05-27T14:26:33Z</time>
      </trkpt>
      <trkpt lat="43.52361" lon="1.29229">
        <ele>170.29</ele>
        <time>2021-05-27T14:26:49Z</time>
      </trkpt>
      <trkpt lat="43.52354" lon="1.29255">
        <ele>170.29</ele>
        <time>2021-05-27T14:27:05Z</time>
      </trkpt>
      <trkpt lat="43.52339" lon="1.2928">
        <ele>170.29</ele>
        <time>2021-05-27T14:27:24Z</time>
      </trkpt>
      <trkpt lat="43.52327" lon="1.29304">
        <ele>169.81</ele>
        <time>2021-05-27T14:27:41Z</time>
      </trkpt>
      <trkpt lat="43.52326" lon="1.29337">
        <ele>170.77</ele>
        <time>2021-05-27T14:28:00Z</time>
      </trkpt>
      <trkpt lat="43.52329" lon="1.29349">
        <ele>170.77</ele>
        <time>2021-05-27T14:28:08Z</time>
      </trkpt>
      <trkpt lat="43.52329" lon="1.29355">
        <ele>170.77</ele>
        <time>2021-05-27T14:28:12Z</time>
      </trkpt>
      <trkpt lat="43.52324" lon="1.29383">
        <ele>169.81</ele>
        <time>2021-05-27T14:28:28Z</time>
      </trkpt>
      <trkpt lat="43.52319" lon="1.29403">
        <ele>169.81</ele>
        <time>2021-05-27T14:28:42Z</time>
      </trkpt>
      <trkpt lat="43.52309" lon="1.29429">
        <ele>169.81</ele>
        <time>2021-05-27T14:28:59Z</time>
      </trkpt>
      <trkpt lat="43.52301" lon="1.2944">
        <ele>169.81</ele>
        <time>2021-05-27T14:29:08Z</time>
      </trkpt>
      <trkpt lat="43.52282" lon="1.29448">
        <ele>169.81</ele>
        <time>2021-05-27T14:29:24Z</time>
      </trkpt>
      <trkpt lat="43.52262" lon="1.29451">
        <ele>169.81</ele>
        <time>2021-05-27T14:29:41Z</time>
      </trkpt>
      <trkpt lat="43.52244" lon="1.29447">
        <ele>169.33</ele>
        <time>2021-05-27T14:29:55Z</time>
      </trkpt>
      <trkpt lat="43.52221" lon="1.29445">
        <ele>169.33</ele>
        <time>2021-05-27T14:30:12Z</time>
      </trkpt>
      <trkpt lat="43.52205" lon="1.29444">
        <ele>170.29</ele>
        <time>2021-05-27T14:30:25Z</time>
      </trkpt>
      <trkpt lat="43.52188" lon="1.29442">
        <ele>170.29</ele>
        <time>2021-05-27T14:30:40Z</time>
      </trkpt>
      <trkpt lat="43.52184" lon="1.2944">
        <ele>170.29</ele>
        <time>2021-05-27T14:31:02Z</time>
      </trkpt>
      <trkpt lat="43.52173" lon="1.29438">
        <ele>170.29</ele>
        <time>2021-05-27T14:31:11Z</time>
      </trkpt>
      <trkpt lat="43.52152" lon="1.2944">
        <ele>170.29</ele>
        <time>2021-05-27T14:31:27Z</time>
      </trkpt>
      <trkpt lat="43.52131" lon="1.2944">
        <ele>170.29</ele>
        <time>2021-05-27T14:31:43Z</time>
      </trkpt>
      <trkpt lat="43.52108" lon="1.29431">
        <ele>170.29</ele>
        <time>2021-05-27T14:32:02Z</time>
      </trkpt>
      <trkpt lat="43.52095" lon="1.29409">
        <ele>170.29</ele>
        <time>2021-05-27T14:32:18Z</time>
      </trkpt>
      <trkpt lat="43.52084" lon="1.29376">
        <ele>170.29</ele>
        <time>2021-05-27T14:32:37Z</time>
      </trkpt>
      <trkpt lat="43.52091" lon="1.29346">
        <ele>170.29</ele>
        <time>2021-05-27T14:32:54Z</time>
      </trkpt>
      <trkpt lat="43.521" lon="1.29321">
        <ele>170.29</ele>
        <time>2021-05-27T14:33:08Z</time>
      </trkpt>
      <trkpt lat="43.52104" lon="1.293">
        <ele>169.81</ele>
        <time>2021-05-27T14:33:22Z</time>
      </trkpt>
      <trkpt lat="43.52111" lon="1.29267">
        <ele>169.81</ele>
        <time>2021-05-27T14:33:39Z</time>
      </trkpt>
      <trkpt lat="43.52117" lon="1.29236">
        <ele>169.81</ele>
        <time>2021-05-27T14:33:53Z</time>
      </trkpt>
      <trkpt lat="43.52121" lon="1.29208">
        <ele>170.29</ele>
        <time>2021-05-27T14:34:09Z</time>
      </trkpt>
      <trkpt lat="43.52121" lon="1.29203">
        <ele>170.29</ele>
        <time>2021-05-27T14:34:23Z</time>
      </trkpt>
      <trkpt lat="43.52118" lon="1.29203">
        <ele>170.29</ele>
        <time>2021-05-27T14:34:45Z</time>
      </trkpt>
      <trkpt lat="43.52117" lon="1.29203">
        <ele>170.29</ele>
        <time>2021-05-27T14:35:14Z</time>
      </trkpt>
      <trkpt lat="43.52117" lon="1.29203">
        <ele>170.29</ele>
        <time>2021-05-27T14:35:36Z</time>
      </trkpt>
      <trkpt lat="43.52119" lon="1.29202">
        <ele>170.29</ele>
        <time>2021-05-27T14:36:02Z</time>
      </trkpt>
      <trkpt lat="43.52117" lon="1.292">
        <ele>170.77</ele>
        <time>2021-05-27T14:36:17Z</time>
      </trkpt>
      <trkpt lat="43.52125" lon="1.29182">
        <ele>170.77</ele>
        <time>2021-05-27T14:36:30Z</time>
      </trkpt>
      <trkpt lat="43.5213" lon="1.29164">
        <ele>169.81</ele>
        <time>2021-05-27T14:36:40Z</time>
      </trkpt>
      <trkpt lat="43.52131" lon="1.29158">
        <ele>170.77</ele>
        <time>2021-05-27T14:36:43Z</time>
      </trkpt>
      <trkpt lat="43.52133" lon="1.29151">
        <ele>170.29</ele>
        <time>2021-05-27T14:36:47Z</time>
      </trkpt>
      <trkpt lat="43.52135" lon="1.29136">
        <ele>171.25</ele>
        <time>2021-05-27T14:36:54Z</time>
      </trkpt>
      <trkpt lat="43.52136" lon="1.2913">
        <ele>169.81</ele>
        <time>2021-05-27T14:36:57Z</time>
      </trkpt>
      <trkpt lat="43.52137" lon="1.29125">
        <ele>170.77</ele>
        <time>2021-05-27T14:37:00Z</time>
      </trkpt>
      <trkpt lat="43.52145" lon="1.29098">
        <ele>171.25</ele>
        <time>2021-05-27T14:37:16Z</time>
      </trkpt>
      <trkpt lat="43.52147" lon="1.29087">
        <ele>169.81</ele>
        <time>2021-05-27T14:37:22Z</time>
      </trkpt>
      <trkpt lat="43.52149" lon="1.29081">
        <ele>171.25</ele>
        <time>2021-05-27T14:37:25Z</time>
      </trkpt>
      <trkpt lat="43.52157" lon="1.29048">
        <ele>171.25</ele>
        <time>2021-05-27T14:37:43Z</time>
      </trkpt>
      <trkpt lat="43.52162" lon="1.2903">
        <ele>170.77</ele>
        <time>2021-05-27T14:37:54Z</time>
      </trkpt>
      <trkpt lat="43.52166" lon="1.29015">
        <ele>169.33</ele>
        <time>2021-05-27T14:38:01Z</time>
      </trkpt>
      <trkpt lat="43.52166" lon="1.29011">
        <ele>170.77</ele>
        <time>2021-05-27T14:38:03Z</time>
      </trkpt>
      <trkpt lat="43.52169" lon="1.28997">
        <ele>169.33</ele>
        <time>2021-05-27T14:38:10Z</time>
      </trkpt>
      <trkpt lat="43.52177" lon="1.28959">
        <ele>169.81</ele>
        <time>2021-05-27T14:38:31Z</time>
      </trkpt>
      <trkpt lat="43.5218" lon="1.28954">
        <ele>171.25</ele>
        <time>2021-05-27T14:38:35Z</time>
      </trkpt>
      <trkpt lat="43.52181" lon="1.28948">
        <ele>169.81</ele>
        <time>2021-05-27T14:38:38Z</time>
      </trkpt>
      <trkpt lat="43.52188" lon="1.28925">
        <ele>169.81</ele>
        <time>2021-05-27T14:38:52Z</time>
      </trkpt>
      <trkpt lat="43.52189" lon="1.28897">
        <ele>169.81</ele>
        <time>2021-05-27T14:39:08Z</time>
      </trkpt>
      <trkpt lat="43.52186" lon="1.28883">
        <ele>170.77</ele>
        <time>2021-05-27T14:39:16Z</time>
      </trkpt>
      <trkpt lat="43.52185" lon="1.28868">
        <ele>170.77</ele>
        <time>2021-05-27T14:39:35Z</time>
      </trkpt>
      <trkpt lat="43.52188" lon="1.28864">
        <ele>171.25</ele>
        <time>2021-05-27T14:39:40Z</time>
      </trkpt>
      <trkpt lat="43.52191" lon="1.28862">
        <ele>169.81</ele>
        <time>2021-05-27T14:39:43Z</time>
      </trkpt>
      <trkpt lat="43.52206" lon="1.2885">
        <ele>169.81</ele>
        <time>2021-05-27T14:39:59Z</time>
      </trkpt>
      <trkpt lat="43.52223" lon="1.28852">
        <ele>170.29</ele>
        <time>2021-05-27T14:40:11Z</time>
      </trkpt>
      <trkpt lat="43.52249" lon="1.28859">
        <ele>170.29</ele>
        <time>2021-05-27T14:40:32Z</time>
      </trkpt>
      <trkpt lat="43.52252" lon="1.28858">
        <ele>169.33</ele>
        <time>2021-05-27T14:40:49Z</time>
      </trkpt>
      <trkpt lat="43.5226" lon="1.28861">
        <ele>170.77</ele>
        <time>2021-05-27T14:40:57Z</time>
      </trkpt>
      <trkpt lat="43.52276" lon="1.28865">
        <ele>169.33</ele>
        <time>2021-05-27T14:41:09Z</time>
      </trkpt>
      <trkpt lat="43.52279" lon="1.28866">
        <ele>170.77</ele>
        <time>2021-05-27T14:41:11Z</time>
      </trkpt>
      <trkpt lat="43.52304" lon="1.28868">
        <ele>170.77</ele>
        <time>2021-05-27T14:41:29Z</time>
      </trkpt>
      <trkpt lat="43.5231" lon="1.28868">
        <ele>169.33</ele>
        <time>2021-05-27T14:41:33Z</time>
      </trkpt>
      <trkpt lat="43.52332" lon="1.28875">
        <ele>170.77</ele>
        <time>2021-05-27T14:41:48Z</time>
      </trkpt>
      <trkpt lat="43.52338" lon="1.28876">
        <ele>169.33</ele>
        <time>2021-05-27T14:41:53Z</time>
      </trkpt>
      <trkpt lat="43.52345" lon="1.28882">
        <ele>169.33</ele>
        <time>2021-05-27T14:42:00Z</time>
      </trkpt>
      <trkpt lat="43.52367" lon="1.28895">
        <ele>170.77</ele>
        <time>2021-05-27T14:42:17Z</time>
      </trkpt>
      <trkpt lat="43.52369" lon="1.28897">
        <ele>169.33</ele>
        <time>2021-05-27T14:42:19Z</time>
      </trkpt>
      <trkpt lat="43.52373" lon="1.289">
        <ele>170.77</ele>
        <time>2021-05-27T14:42:23Z</time>
      </trkpt>
      <trkpt lat="43.52393" lon="1.28918">
        <ele>170.77</ele>
        <time>2021-05-27T14:42:39Z</time>
      </trkpt>
      <trkpt lat="43.52396" lon="1.2892">
        <ele>169.33</ele>
        <time>2021-05-27T14:42:41Z</time>
      </trkpt>
      <trkpt lat="43.52411" lon="1.28934">
        <ele>171.25</ele>
        <time>2021-05-27T14:42:55Z</time>
      </trkpt>
      <trkpt lat="43.52434" lon="1.28956">
        <ele>170.29</ele>
        <time>2021-05-27T14:43:17Z</time>
      </trkpt>
      <trkpt lat="43.52458" lon="1.2897">
        <ele>169.81</ele>
        <time>2021-05-27T14:43:35Z</time>
      </trkpt>
      <trkpt lat="43.5246" lon="1.28971">
        <ele>170.77</ele>
        <time>2021-05-27T14:43:37Z</time>
      </trkpt>
      <trkpt lat="43.52463" lon="1.28971">
        <ele>169.33</ele>
        <time>2021-05-27T14:43:39Z</time>
      </trkpt>
      <trkpt lat="43.52466" lon="1.28972">
        <ele>171.25</ele>
        <time>2021-05-27T14:43:41Z</time>
      </trkpt>
      <trkpt lat="43.52468" lon="1.28972">
        <ele>169.81</ele>
        <time>2021-05-27T14:43:43Z</time>
      </trkpt>
      <trkpt lat="43.5248" lon="1.28975">
        <ele>171.73</ele>
        <time>2021-05-27T14:43:53Z</time>
      </trkpt>
      <trkpt lat="43.52486" lon="1.28978">
        <ele>170.29</ele>
        <time>2021-05-27T14:43:57Z</time>
      </trkpt>
      <trkpt lat="43.52506" lon="1.28996">
        <ele>170.77</ele>
        <time>2021-05-27T14:44:14Z</time>
      </trkpt>
      <trkpt lat="43.52511" lon="1.28999">
        <ele>169.33</ele>
        <time>2021-05-27T14:44:18Z</time>
      </trkpt>
      <trkpt lat="43.52516" lon="1.29001">
        <ele>170.29</ele>
        <time>2021-05-27T14:44:23Z</time>
      </trkpt>
      <trkpt lat="43.52544" lon="1.29017">
        <ele>168.85</ele>
        <time>2021-05-27T14:44:43Z</time>
      </trkpt>
      <trkpt lat="43.52555" lon="1.29024">
        <ele>170.77</ele>
        <time>2021-05-27T14:44:51Z</time>
      </trkpt>
      <trkpt lat="43.52557" lon="1.29026">
        <ele>169.33</ele>
        <time>2021-05-27T14:44:53Z</time>
      </trkpt>
      <trkpt lat="43.52575" lon="1.29023">
        <ele>169.33</ele>
        <time>2021-05-27T14:45:06Z</time>
      </trkpt>
      <trkpt lat="43.52578" lon="1.29017">
        <ele>170.77</ele>
        <time>2021-05-27T14:45:12Z</time>
      </trkpt>
      <trkpt lat="43.52599" lon="1.28996">
        <ele>168.85</ele>
        <time>2021-05-27T14:45:32Z</time>
      </trkpt>
      <trkpt lat="43.52601" lon="1.28996">
        <ele>170.29</ele>
        <time>2021-05-27T14:45:34Z</time>
      </trkpt>
      <trkpt lat="43.52614" lon="1.28994">
        <ele>168.85</ele>
        <time>2021-05-27T14:45:43Z</time>
      </trkpt>
      <trkpt lat="43.52631" lon="1.28998">
        <ele>170.29</ele>
        <time>2021-05-27T14:45:54Z</time>
      </trkpt>
      <trkpt lat="43.52635" lon="1.28997">
        <ele>168.85</ele>
        <time>2021-05-27T14:45:59Z</time>
      </trkpt>
      <trkpt lat="43.52638" lon="1.28989">
        <ele>168.85</ele>
        <time>2021-05-27T14:46:13Z</time>
      </trkpt>
      <trkpt lat="43.5264" lon="1.28989">
        <ele>168.85</ele>
        <time>2021-05-27T14:46:29Z</time>
      </trkpt>
      <trkpt lat="43.52641" lon="1.28986">
        <ele>169.81</ele>
        <time>2021-05-27T14:46:52Z</time>
      </trkpt>
      <trkpt lat="43.52643" lon="1.28986">
        <ele>169.81</ele>
        <time>2021-05-27T14:47:20Z</time>
      </trkpt>
      <trkpt lat="43.52644" lon="1.28989">
        <ele>168.85</ele>
        <time>2021-05-27T14:47:39Z</time>
      </trkpt>
      <trkpt lat="43.52646" lon="1.28997">
        <ele>168.85</ele>
        <time>2021-05-27T14:48:03Z</time>
      </trkpt>
      <trkpt lat="43.52644" lon="1.28994">
        <ele>168.85</ele>
        <time>2021-05-27T14:48:24Z</time>
      </trkpt>
      <trkpt lat="43.52646" lon="1.28993">
        <ele>168.85</ele>
        <time>2021-05-27T14:48:49Z</time>
      </trkpt>
      <trkpt lat="43.5265" lon="1.28992">
        <ele>168.85</ele>
        <time>2021-05-27T14:49:18Z</time>
      </trkpt>
      <trkpt lat="43.52649" lon="1.28994">
        <ele>168.85</ele>
        <time>2021-05-27T14:49:45Z</time>
      </trkpt>
      <trkpt lat="43.5266" lon="1.28999">
        <ele>168.85</ele>
        <time>2021-05-27T14:50:08Z</time>
      </trkpt>
      <trkpt lat="43.52661" lon="1.29">
        <ele>168.85</ele>
        <time>2021-05-27T14:50:09Z</time>
      </trkpt>
      <trkpt lat="43.52675" lon="1.29012">
        <ele>169.81</ele>
        <time>2021-05-27T14:50:24Z</time>
      </trkpt>
      <trkpt lat="43.5268" lon="1.29016">
        <ele>168.37</ele>
        <time>2021-05-27T14:50:29Z</time>
      </trkpt>
      <trkpt lat="43.5269" lon="1.29026">
        <ele>169.81</ele>
        <time>2021-05-27T14:50:40Z</time>
      </trkpt>
      <trkpt lat="43.52694" lon="1.29032">
        <ele>169.81</ele>
        <time>2021-05-27T14:50:44Z</time>
      </trkpt>
      <trkpt lat="43.5271" lon="1.29047">
        <ele>169.81</ele>
        <time>2021-05-27T14:51:00Z</time>
      </trkpt>
      <trkpt lat="43.52726" lon="1.29067">
        <ele>169.81</ele>
        <time>2021-05-27T14:51:19Z</time>
      </trkpt>
      <trkpt lat="43.52749" lon="1.29084">
        <ele>169.81</ele>
        <time>2021-05-27T14:51:38Z</time>
      </trkpt>
      <trkpt lat="43.52752" lon="1.29088">
        <ele>168.37</ele>
        <time>2021-05-27T14:51:41Z</time>
      </trkpt>
      <trkpt lat="43.52767" lon="1.29099">
        <ele>168.37</ele>
        <time>2021-05-27T14:51:52Z</time>
      </trkpt>
      <trkpt lat="43.52785" lon="1.29111">
        <ele>168.37</ele>
        <time>2021-05-27T14:52:06Z</time>
      </trkpt>
      <trkpt lat="43.52793" lon="1.29119">
        <ele>168.37</ele>
        <time>2021-05-27T14:52:13Z</time>
      </trkpt>
      <trkpt lat="43.52817" lon="1.29138">
        <ele>169.81</ele>
        <time>2021-05-27T14:52:33Z</time>
      </trkpt>
      <trkpt lat="43.52819" lon="1.2914">
        <ele>168.37</ele>
        <time>2021-05-27T14:52:35Z</time>
      </trkpt>
      <trkpt lat="43.52823" lon="1.29142">
        <ele>169.81</ele>
        <time>2021-05-27T14:52:39Z</time>
      </trkpt>
      <trkpt lat="43.52832" lon="1.2915">
        <ele>169.81</ele>
        <time>2021-05-27T14:52:46Z</time>
      </trkpt>
      <trkpt lat="43.52851" lon="1.29171">
        <ele>168.37</ele>
        <time>2021-05-27T14:53:03Z</time>
      </trkpt>
      <trkpt lat="43.52853" lon="1.29173">
        <ele>169.81</ele>
        <time>2021-05-27T14:53:05Z</time>
      </trkpt>
      <trkpt lat="43.52866" lon="1.29181">
        <ele>167.89</ele>
        <time>2021-05-27T14:53:14Z</time>
      </trkpt>
      <trkpt lat="43.52868" lon="1.29183">
        <ele>169.81</ele>
        <time>2021-05-27T14:53:16Z</time>
      </trkpt>
      <trkpt lat="43.52873" lon="1.29187">
        <ele>168.37</ele>
        <time>2021-05-27T14:53:20Z</time>
      </trkpt>
      <trkpt lat="43.52885" lon="1.29193">
        <ele>168.37</ele>
        <time>2021-05-27T14:53:29Z</time>
      </trkpt>
      <trkpt lat="43.52891" lon="1.29199">
        <ele>167.89</ele>
        <time>2021-05-27T14:53:35Z</time>
      </trkpt>
      <trkpt lat="43.52896" lon="1.29203">
        <ele>169.33</ele>
        <time>2021-05-27T14:53:39Z</time>
      </trkpt>
      <trkpt lat="43.52913" lon="1.29212">
        <ele>168.85</ele>
        <time>2021-05-27T14:53:51Z</time>
      </trkpt>
      <trkpt lat="43.52933" lon="1.29225">
        <ele>169.81</ele>
        <time>2021-05-27T14:54:10Z</time>
      </trkpt>
      <trkpt lat="43.52935" lon="1.29226">
        <ele>169.81</ele>
        <time>2021-05-27T14:54:11Z</time>
      </trkpt>
      <trkpt lat="43.52939" lon="1.29228">
        <ele>168.37</ele>
        <time>2021-05-27T14:54:14Z</time>
      </trkpt>
      <trkpt lat="43.52961" lon="1.29242">
        <ele>169.81</ele>
        <time>2021-05-27T14:54:33Z</time>
      </trkpt>
      <trkpt lat="43.52985" lon="1.29258">
        <ele>168.85</ele>
        <time>2021-05-27T14:54:53Z</time>
      </trkpt>
      <trkpt lat="43.52991" lon="1.29264">
        <ele>170.29</ele>
        <time>2021-05-27T14:54:59Z</time>
      </trkpt>
      <trkpt lat="43.52995" lon="1.29267">
        <ele>168.85</ele>
        <time>2021-05-27T14:55:02Z</time>
      </trkpt>
      <trkpt lat="43.53" lon="1.2927">
        <ele>169.81</ele>
        <time>2021-05-27T14:55:06Z</time>
      </trkpt>
      <trkpt lat="43.53005" lon="1.29272">
        <ele>168.85</ele>
        <time>2021-05-27T14:55:09Z</time>
      </trkpt>
      <trkpt lat="43.53031" lon="1.29287">
        <ele>168.85</ele>
        <time>2021-05-27T14:55:29Z</time>
      </trkpt>
      <trkpt lat="43.53036" lon="1.2929">
        <ele>170.29</ele>
        <time>2021-05-27T14:55:33Z</time>
      </trkpt>
      <trkpt lat="43.53043" lon="1.29296">
        <ele>170.29</ele>
        <time>2021-05-27T14:55:39Z</time>
      </trkpt>
      <trkpt lat="43.53046" lon="1.293">
        <ele>168.85</ele>
        <time>2021-05-27T14:55:42Z</time>
      </trkpt>
      <trkpt lat="43.53057" lon="1.29309">
        <ele>168.85</ele>
        <time>2021-05-27T14:55:50Z</time>
      </trkpt>
      <trkpt lat="43.53061" lon="1.29311">
        <ele>170.29</ele>
        <time>2021-05-27T14:55:54Z</time>
      </trkpt>
      <trkpt lat="43.53064" lon="1.29315">
        <ele>168.85</ele>
        <time>2021-05-27T14:56:11Z</time>
      </trkpt>
      <trkpt lat="43.53066" lon="1.29317">
        <ele>169.33</ele>
        <time>2021-05-27T14:56:33Z</time>
      </trkpt>
      <trkpt lat="43.53066" lon="1.29317">
        <ele>169.33</ele>
        <time>2021-05-27T14:56:47Z</time>
      </trkpt>
      <trkpt lat="43.53071" lon="1.2932">
        <ele>169.33</ele>
        <time>2021-05-27T14:56:53Z</time>
      </trkpt>
      <trkpt lat="43.53086" lon="1.29336">
        <ele>169.33</ele>
        <time>2021-05-27T14:57:09Z</time>
      </trkpt>
      <trkpt lat="43.53101" lon="1.29352">
        <ele>169.81</ele>
        <time>2021-05-27T14:57:22Z</time>
      </trkpt>
      <trkpt lat="43.53102" lon="1.29353">
        <ele>169.81</ele>
        <time>2021-05-27T14:57:23Z</time>
      </trkpt>
      <trkpt lat="43.53119" lon="1.29372">
        <ele>170.29</ele>
        <time>2021-05-27T14:57:42Z</time>
      </trkpt>
      <trkpt lat="43.53124" lon="1.29379">
        <ele>168.85</ele>
        <time>2021-05-27T14:57:47Z</time>
      </trkpt>
      <trkpt lat="43.53148" lon="1.29402">
        <ele>169.81</ele>
        <time>2021-05-27T14:58:06Z</time>
      </trkpt>
      <trkpt lat="43.53153" lon="1.29406">
        <ele>168.85</ele>
        <time>2021-05-27T14:58:10Z</time>
      </trkpt>
      <trkpt lat="43.53157" lon="1.29408">
        <ele>169.81</ele>
        <time>2021-05-27T14:58:13Z</time>
      </trkpt>
      <trkpt lat="43.53161" lon="1.29413">
        <ele>168.85</ele>
        <time>2021-05-27T14:58:18Z</time>
      </trkpt>
      <trkpt lat="43.53169" lon="1.29423">
        <ele>170.29</ele>
        <time>2021-05-27T14:58:27Z</time>
      </trkpt>
      <trkpt lat="43.5317" lon="1.29426">
        <ele>168.85</ele>
        <time>2021-05-27T14:58:29Z</time>
      </trkpt>
      <trkpt lat="43.53172" lon="1.29434">
        <ele>168.85</ele>
        <time>2021-05-27T14:58:33Z</time>
      </trkpt>
      <trkpt lat="43.53178" lon="1.29453">
        <ele>170.29</ele>
        <time>2021-05-27T14:58:43Z</time>
      </trkpt>
      <trkpt lat="43.53182" lon="1.29459">
        <ele>168.85</ele>
        <time>2021-05-27T14:58:47Z</time>
      </trkpt>
      <trkpt lat="43.53188" lon="1.29465">
        <ele>168.37</ele>
        <time>2021-05-27T14:58:53Z</time>
      </trkpt>
      <trkpt lat="43.53191" lon="1.29465">
        <ele>169.81</ele>
        <time>2021-05-27T14:58:55Z</time>
      </trkpt>
      <trkpt lat="43.53194" lon="1.29462">
        <ele>168.37</ele>
        <time>2021-05-27T14:58:57Z</time>
      </trkpt>
      <trkpt lat="43.53196" lon="1.2946">
        <ele>170.29</ele>
        <time>2021-05-27T14:58:59Z</time>
      </trkpt>
      <trkpt lat="43.53199" lon="1.29453">
        <ele>168.37</ele>
        <time>2021-05-27T14:59:02Z</time>
      </trkpt>
      <trkpt lat="43.53214" lon="1.29427">
        <ele>168.85</ele>
        <time>2021-05-27T14:59:19Z</time>
      </trkpt>
      <trkpt lat="43.53219" lon="1.29416">
        <ele>168.85</ele>
        <time>2021-05-27T14:59:26Z</time>
      </trkpt>
      <trkpt lat="43.53235" lon="1.29378">
        <ele>170.29</ele>
        <time>2021-05-27T14:59:48Z</time>
      </trkpt>
      <trkpt lat="43.53241" lon="1.29352">
        <ele>170.29</ele>
        <time>2021-05-27T15:00:04Z</time>
      </trkpt>
      <trkpt lat="43.53247" lon="1.29334">
        <ele>168.85</ele>
        <time>2021-05-27T15:00:13Z</time>
      </trkpt>
      <trkpt lat="43.53248" lon="1.29324">
        <ele>169.81</ele>
        <time>2021-05-27T15:00:18Z</time>
      </trkpt>
      <trkpt lat="43.5324" lon="1.29291">
        <ele>169.81</ele>
        <time>2021-05-27T15:00:36Z</time>
      </trkpt>
      <trkpt lat="43.53228" lon="1.29281">
        <ele>170.77</ele>
        <time>2021-05-27T15:00:47Z</time>
      </trkpt>
      <trkpt lat="43.53206" lon="1.29264">
        <ele>169.81</ele>
        <time>2021-05-27T15:01:08Z</time>
      </trkpt>
      <trkpt lat="43.53193" lon="1.29239">
        <ele>170.77</ele>
        <time>2021-05-27T15:01:26Z</time>
      </trkpt>
      <trkpt lat="43.53194" lon="1.29238">
        <ele>170.77</ele>
        <time>2021-05-27T15:01:27Z</time>
      </trkpt>
      <trkpt lat="43.53198" lon="1.29228">
        <ele>169.81</ele>
        <time>2021-05-27T15:01:33Z</time>
      </trkpt>
      <trkpt lat="43.53202" lon="1.29213">
        <ele>171.25</ele>
        <time>2021-05-27T15:01:42Z</time>
      </trkpt>
      <trkpt lat="43.53209" lon="1.29194">
        <ele>170.29</ele>
        <time>2021-05-27T15:01:55Z</time>
      </trkpt>
      <trkpt lat="43.53215" lon="1.29182">
        <ele>171.25</ele>
        <time>2021-05-27T15:02:03Z</time>
      </trkpt>
      <trkpt lat="43.53227" lon="1.29155">
        <ele>170.77</ele>
        <time>2021-05-27T15:02:19Z</time>
      </trkpt>
      <trkpt lat="43.53235" lon="1.29138">
        <ele>169.33</ele>
        <time>2021-05-27T15:02:28Z</time>
      </trkpt>
      <trkpt lat="43.5324" lon="1.29128">
        <ele>171.25</ele>
        <time>2021-05-27T15:02:33Z</time>
      </trkpt>
      <trkpt lat="43.53245" lon="1.29121">
        <ele>169.81</ele>
        <time>2021-05-27T15:02:38Z</time>
      </trkpt>
      <trkpt lat="43.53253" lon="1.29114">
        <ele>170.77</ele>
        <time>2021-05-27T15:02:48Z</time>
      </trkpt>
      <trkpt lat="43.53259" lon="1.29117">
        <ele>171.25</ele>
        <time>2021-05-27T15:02:52Z</time>
      </trkpt>
      <trkpt lat="43.53282" lon="1.2913">
        <ele>169.81</ele>
        <time>2021-05-27T15:03:09Z</time>
      </trkpt>
      <trkpt lat="43.53293" lon="1.29135">
        <ele>169.33</ele>
        <time>2021-05-27T15:03:18Z</time>
      </trkpt>
      <trkpt lat="43.53304" lon="1.29138">
        <ele>170.29</ele>
        <time>2021-05-27T15:03:28Z</time>
      </trkpt>
      <trkpt lat="43.53313" lon="1.29129">
        <ele>170.29</ele>
        <time>2021-05-27T15:03:38Z</time>
      </trkpt>
      <trkpt lat="43.53327" lon="1.29097">
        <ele>170.77</ele>
        <time>2021-05-27T15:03:58Z</time>
      </trkpt>
      <trkpt lat="43.53329" lon="1.29089">
        <ele>170.77</ele>
        <time>2021-05-27T15:04:02Z</time>
      </trkpt>
      <trkpt lat="43.5333" lon="1.29085">
        <ele>169.33</ele>
        <time>2021-05-27T15:04:04Z</time>
      </trkpt>
      <trkpt lat="43.53343" lon="1.29053">
        <ele>169.33</ele>
        <time>2021-05-27T15:04:24Z</time>
      </trkpt>
      <trkpt lat="43.53345" lon="1.29046">
        <ele>170.77</ele>
        <time>2021-05-27T15:04:28Z</time>
      </trkpt>
      <trkpt lat="43.53346" lon="1.29043">
        <ele>169.33</ele>
        <time>2021-05-27T15:04:30Z</time>
      </trkpt>
      <trkpt lat="43.53353" lon="1.29012">
        <ele>170.29</ele>
        <time>2021-05-27T15:04:48Z</time>
      </trkpt>
      <trkpt lat="43.53368" lon="1.28976">
        <ele>169.33</ele>
        <time>2021-05-27T15:05:09Z</time>
      </trkpt>
      <trkpt lat="43.53378" lon="1.28954">
        <ele>170.77</ele>
        <time>2021-05-27T15:05:21Z</time>
      </trkpt>
      <trkpt lat="43.53382" lon="1.28923">
        <ele>169.81</ele>
        <time>2021-05-27T15:05:39Z</time>
      </trkpt>
      <trkpt lat="43.53383" lon="1.28916">
        <ele>171.25</ele>
        <time>2021-05-27T15:05:44Z</time>
      </trkpt>
      <trkpt lat="43.53383" lon="1.28914">
        <ele>171.25</ele>
        <time>2021-05-27T15:05:45Z</time>
      </trkpt>
      <trkpt lat="43.53382" lon="1.28906">
        <ele>171.25</ele>
        <time>2021-05-27T15:05:49Z</time>
      </trkpt>
      <trkpt lat="43.53379" lon="1.28893">
        <ele>169.33</ele>
        <time>2021-05-27T15:05:56Z</time>
      </trkpt>
      <trkpt lat="43.53377" lon="1.2889">
        <ele>170.77</ele>
        <time>2021-05-27T15:05:58Z</time>
      </trkpt>
      <trkpt lat="43.5335" lon="1.28876">
        <ele>171.73</ele>
        <time>2021-05-27T15:06:19Z</time>
      </trkpt>
      <trkpt lat="43.53319" lon="1.28864">
        <ele>171.73</ele>
        <time>2021-05-27T15:06:42Z</time>
      </trkpt>
      <trkpt lat="43.53297" lon="1.28852">
        <ele>171.73</ele>
        <time>2021-05-27T15:07:00Z</time>
      </trkpt>
      <trkpt lat="43.53291" lon="1.2885">
        <ele>173.17</ele>
        <time>2021-05-27T15:07:04Z</time>
      </trkpt>
      <trkpt lat="43.53263" lon="1.28839">
        <ele>169.81</ele>
        <time>2021-05-27T15:07:25Z</time>
      </trkpt>
      <trkpt lat="43.53258" lon="1.28837">
        <ele>172.21</ele>
        <time>2021-05-27T15:07:29Z</time>
      </trkpt>
      <trkpt lat="43.53244" lon="1.2883">
        <ele>170.77</ele>
        <time>2021-05-27T15:07:40Z</time>
      </trkpt>
      <trkpt lat="43.53228" lon="1.28824">
        <ele>171.73</ele>
        <time>2021-05-27T15:07:51Z</time>
      </trkpt>
      <trkpt lat="43.53198" lon="1.28817">
        <ele>172.21</ele>
        <time>2021-05-27T15:08:13Z</time>
      </trkpt>
      <trkpt lat="43.53187" lon="1.28818">
        <ele>171.25</ele>
        <time>2021-05-27T15:08:22Z</time>
      </trkpt>
      <trkpt lat="43.53158" lon="1.28831">
        <ele>174.14</ele>
        <time>2021-05-27T15:08:43Z</time>
      </trkpt>
      <trkpt lat="43.53149" lon="1.28845">
        <ele>174.14</ele>
        <time>2021-05-27T15:08:52Z</time>
      </trkpt>
      <trkpt lat="43.53129" lon="1.28862">
        <ele>173.66</ele>
        <time>2021-05-27T15:09:08Z</time>
      </trkpt>
      <trkpt lat="43.53128" lon="1.28863">
        <ele>173.66</ele>
        <time>2021-05-27T15:09:09Z</time>
      </trkpt>
      <trkpt lat="43.53106" lon="1.28868">
        <ele>172.21</ele>
        <time>2021-05-27T15:09:23Z</time>
      </trkpt>
      <trkpt lat="43.53087" lon="1.28859">
        <ele>172.69</ele>
        <time>2021-05-27T15:09:38Z</time>
      </trkpt>
      <trkpt lat="43.53081" lon="1.28852">
        <ele>171.25</ele>
        <time>2021-05-27T15:09:44Z</time>
      </trkpt>
      <trkpt lat="43.53077" lon="1.28846">
        <ele>173.17</ele>
        <time>2021-05-27T15:09:48Z</time>
      </trkpt>
      <trkpt lat="43.53054" lon="1.2882">
        <ele>171.73</ele>
        <time>2021-05-27T15:10:09Z</time>
      </trkpt>
      <trkpt lat="43.53032" lon="1.28794">
        <ele>172.21</ele>
        <time>2021-05-27T15:10:29Z</time>
      </trkpt>
      <trkpt lat="43.53016" lon="1.2878">
        <ele>172.69</ele>
        <time>2021-05-27T15:10:42Z</time>
      </trkpt>
      <trkpt lat="43.53002" lon="1.28765">
        <ele>172.69</ele>
        <time>2021-05-27T15:10:53Z</time>
      </trkpt>
      <trkpt lat="43.52977" lon="1.28744">
        <ele>171.73</ele>
        <time>2021-05-27T15:11:12Z</time>
      </trkpt>
      <trkpt lat="43.52966" lon="1.28737">
        <ele>172.69</ele>
        <time>2021-05-27T15:11:21Z</time>
      </trkpt>
      <trkpt lat="43.52935" lon="1.28715">
        <ele>171.73</ele>
        <time>2021-05-27T15:11:43Z</time>
      </trkpt>
      <trkpt lat="43.52925" lon="1.28708">
        <ele>173.17</ele>
        <time>2021-05-27T15:11:50Z</time>
      </trkpt>
      <trkpt lat="43.52903" lon="1.28693">
        <ele>172.21</ele>
        <time>2021-05-27T15:12:07Z</time>
      </trkpt>
      <trkpt lat="43.52899" lon="1.28689">
        <ele>173.17</ele>
        <time>2021-05-27T15:12:10Z</time>
      </trkpt>
      <trkpt lat="43.52873" lon="1.28669">
        <ele>173.17</ele>
        <time>2021-05-27T15:12:30Z</time>
      </trkpt>
      <trkpt lat="43.52849" lon="1.28653">
        <ele>173.17</ele>
        <time>2021-05-27T15:12:47Z</time>
      </trkpt>
      <trkpt lat="43.52822" lon="1.2863">
        <ele>173.66</ele>
        <time>2021-05-27T15:13:09Z</time>
      </trkpt>
      <trkpt lat="43.528" lon="1.28604">
        <ele>176.06</ele>
        <time>2021-05-27T15:13:29Z</time>
      </trkpt>
      <trkpt lat="43.5278" lon="1.28577">
        <ele>176.54</ele>
        <time>2021-05-27T15:13:47Z</time>
      </trkpt>
      <trkpt lat="43.52755" lon="1.28552">
        <ele>176.54</ele>
        <time>2021-05-27T15:14:08Z</time>
      </trkpt>
      <trkpt lat="43.52745" lon="1.28523">
        <ele>173.66</ele>
        <time>2021-05-27T15:14:26Z</time>
      </trkpt>
      <trkpt lat="43.52745" lon="1.28493">
        <ele>172.21</ele>
        <time>2021-05-27T15:14:45Z</time>
      </trkpt>
      <trkpt lat="43.52749" lon="1.28483">
        <ele>173.66</ele>
        <time>2021-05-27T15:14:51Z</time>
      </trkpt>
      <trkpt lat="43.52762" lon="1.28449">
        <ele>173.66</ele>
        <time>2021-05-27T15:15:10Z</time>
      </trkpt>
      <trkpt lat="43.52776" lon="1.28408">
        <ele>173.17</ele>
        <time>2021-05-27T15:15:33Z</time>
      </trkpt>
      <trkpt lat="43.52786" lon="1.28374">
        <ele>172.69</ele>
        <time>2021-05-27T15:15:52Z</time>
      </trkpt>
      <trkpt lat="43.52788" lon="1.28369">
        <ele>172.69</ele>
        <time>2021-05-27T15:15:54Z</time>
      </trkpt>
      <trkpt lat="43.5279" lon="1.28361">
        <ele>172.69</ele>
        <time>2021-05-27T15:15:58Z</time>
      </trkpt>
      <trkpt lat="43.52792" lon="1.28353">
        <ele>174.14</ele>
        <time>2021-05-27T15:16:02Z</time>
      </trkpt>
      <trkpt lat="43.528" lon="1.28326">
        <ele>174.14</ele>
        <time>2021-05-27T15:16:16Z</time>
      </trkpt>
      <trkpt lat="43.52812" lon="1.28294">
        <ele>172.69</ele>
        <time>2021-05-27T15:16:35Z</time>
      </trkpt>
      <trkpt lat="43.52815" lon="1.28287">
        <ele>172.69</ele>
        <time>2021-05-27T15:16:42Z</time>
      </trkpt>
      <trkpt lat="43.52818" lon="1.28286">
        <ele>172.69</ele>
        <time>2021-05-27T15:16:45Z</time>
      </trkpt>
      <trkpt lat="43.52838" lon="1.28282">
        <ele>172.21</ele>
        <time>2021-05-27T15:17:00Z</time>
      </trkpt>
      <trkpt lat="43.52839" lon="1.28288">
        <ele>172.69</ele>
        <time>2021-05-27T15:17:26Z</time>
      </trkpt>
      <trkpt lat="43.52847" lon="1.28284">
        <ele>172.21</ele>
        <time>2021-05-27T15:17:59Z</time>
      </trkpt>
      <trkpt lat="43.52838" lon="1.28281">
        <ele>172.21</ele>
        <time>2021-05-27T15:18:31Z</time>
      </trkpt>
      <trkpt lat="43.52824" lon="1.28279">
        <ele>172.21</ele>
        <time>2021-05-27T15:18:42Z</time>
      </trkpt>
      <trkpt lat="43.52814" lon="1.28272">
        <ele>171.73</ele>
        <time>2021-05-27T15:18:52Z</time>
      </trkpt>
      <trkpt lat="43.5281" lon="1.28264">
        <ele>171.73</ele>
        <time>2021-05-27T15:18:57Z</time>
      </trkpt>
      <trkpt lat="43.52783" lon="1.28259">
        <ele>170.77</ele>
        <time>2021-05-27T15:19:19Z</time>
      </trkpt>
      <trkpt lat="43.52759" lon="1.28256">
        <ele>170.77</ele>
        <time>2021-05-27T15:19:38Z</time>
      </trkpt>
      <trkpt lat="43.52742" lon="1.28254">
        <ele>172.21</ele>
        <time>2021-05-27T15:19:50Z</time>
      </trkpt>
      <trkpt lat="43.52726" lon="1.28253">
        <ele>171.25</ele>
        <time>2021-05-27T15:20:03Z</time>
      </trkpt>
      <trkpt lat="43.52724" lon="1.28253">
        <ele>172.21</ele>
        <time>2021-05-27T15:20:05Z</time>
      </trkpt>
      <trkpt lat="43.52698" lon="1.28249">
        <ele>171.25</ele>
        <time>2021-05-27T15:20:24Z</time>
      </trkpt>
      <trkpt lat="43.52681" lon="1.28248">
        <ele>172.21</ele>
        <time>2021-05-27T15:20:36Z</time>
      </trkpt>
      <trkpt lat="43.52676" lon="1.28249">
        <ele>170.77</ele>
        <time>2021-05-27T15:20:40Z</time>
      </trkpt>
      <trkpt lat="43.52665" lon="1.28247">
        <ele>172.21</ele>
        <time>2021-05-27T15:20:51Z</time>
      </trkpt>
      <trkpt lat="43.52652" lon="1.28242">
        <ele>172.21</ele>
        <time>2021-05-27T15:21:02Z</time>
      </trkpt>
      <trkpt lat="43.52633" lon="1.28245">
        <ele>173.17</ele>
        <time>2021-05-27T15:21:16Z</time>
      </trkpt>
      <trkpt lat="43.5263" lon="1.28247">
        <ele>173.66</ele>
        <time>2021-05-27T15:21:20Z</time>
      </trkpt>
      <trkpt lat="43.52614" lon="1.28256">
        <ele>172.69</ele>
        <time>2021-05-27T15:21:40Z</time>
      </trkpt>
      <trkpt lat="43.52606" lon="1.28266">
        <ele>172.69</ele>
        <time>2021-05-27T15:21:48Z</time>
      </trkpt>
      <trkpt lat="43.52596" lon="1.28294">
        <ele>172.69</ele>
        <time>2021-05-27T15:22:07Z</time>
      </trkpt>
      <trkpt lat="43.5259" lon="1.28318">
        <ele>172.69</ele>
        <time>2021-05-27T15:22:24Z</time>
      </trkpt>
      <trkpt lat="43.52587" lon="1.28324">
        <ele>172.69</ele>
        <time>2021-05-27T15:22:36Z</time>
      </trkpt>
      <trkpt lat="43.52585" lon="1.28326">
        <ele>172.69</ele>
        <time>2021-05-27T15:22:40Z</time>
      </trkpt>
      <trkpt lat="43.52582" lon="1.28334">
        <ele>172.69</ele>
        <time>2021-05-27T15:22:49Z</time>
      </trkpt>
      <trkpt lat="43.52578" lon="1.28351">
        <ele>172.69</ele>
        <time>2021-05-27T15:23:02Z</time>
      </trkpt>
      <trkpt lat="43.52574" lon="1.28376">
        <ele>172.69</ele>
        <time>2021-05-27T15:23:20Z</time>
      </trkpt>
      <trkpt lat="43.52576" lon="1.28377">
        <ele>172.69</ele>
        <time>2021-05-27T15:23:43Z</time>
      </trkpt>
      <trkpt lat="43.52578" lon="1.28378">
        <ele>172.69</ele>
        <time>2021-05-27T15:24:01Z</time>
      </trkpt>
      <trkpt lat="43.52576" lon="1.28377">
        <ele>172.69</ele>
        <time>2021-05-27T15:24:28Z</time>
      </trkpt>
      <trkpt lat="43.52579" lon="1.28379">
        <ele>172.69</ele>
        <time>2021-05-27T15:24:47Z</time>
      </trkpt>
      <trkpt lat="43.52576" lon="1.28382">
        <ele>172.69</ele>
        <time>2021-05-27T15:25:12Z</time>
      </trkpt>
      <trkpt lat="43.52578" lon="1.28378">
        <ele>173.66</ele>
        <time>2021-05-27T15:25:27Z</time>
      </trkpt>
    </trkseg>
  </trk>
</gpx>